<?xml version='1.0' encoding='UTF-8'?>
<gpx version="1.1" creator="https://www.komoot.de" xmlns="http://www.topografix.com/GPX/1/1" xmlns:xsi="http://www.w3.org/2001/XMLSchema-instance" xsi:schemaLocation="http://www.topografix.com/GPX/1/1 http://www.topografix.com/GPX/1/1/gpx.xsd">
  <metadata>
    <name>ViaSanctiMartini_PontdeBeauvoisin_Virieu</name>
    <author>
      <link href="https://www.komoot.de">
        <text>komoot</text>
        <type>text/html</type>
      </link>
    </author>
  </metadata>
  <trk>
    <name>ViaSanctiMartini_PontdeBeauvoisin_Virieu</name>
    <trkseg>
      <trkpt lat="45.524810" lon="5.680890">
        <ele>281.626331</ele>
        <time>2026-05-04T08:56:38.567Z</time>
      </trkpt>
      <trkpt lat="45.524814" lon="5.680706">
        <ele>281.626331</ele>
        <time>2026-05-04T08:56:52.656Z</time>
      </trkpt>
      <trkpt lat="45.525161" lon="5.680391">
        <ele>281.626331</ele>
        <time>2026-05-04T08:57:38.173Z</time>
      </trkpt>
      <trkpt lat="45.525169" lon="5.680393">
        <ele>281.626331</ele>
        <time>2026-05-04T08:57:39.107Z</time>
      </trkpt>
      <trkpt lat="45.525653" lon="5.680566">
        <ele>282.017909</ele>
        <time>2026-05-04T08:58:35.416Z</time>
      </trkpt>
      <trkpt lat="45.525998" lon="5.680720">
        <ele>282.974625</ele>
        <time>2026-05-04T08:59:16.411Z</time>
      </trkpt>
      <trkpt lat="45.526018" lon="5.680731">
        <ele>283.031353</ele>
        <time>2026-05-04T08:59:18.801Z</time>
      </trkpt>
      <trkpt lat="45.526131" lon="5.680802">
        <ele>283.358122</ele>
        <time>2026-05-04T08:59:32.611Z</time>
      </trkpt>
      <trkpt lat="45.526277" lon="5.680484">
        <ele>284.063102</ele>
        <time>2026-05-04T09:00:01.896Z</time>
      </trkpt>
      <trkpt lat="45.526267" lon="5.680313">
        <ele>284.381276</ele>
        <time>2026-05-04T09:00:14.956Z</time>
      </trkpt>
      <trkpt lat="45.526313" lon="5.680218">
        <ele>284.595406</ele>
        <time>2026-05-04T09:00:23.723Z</time>
      </trkpt>
      <trkpt lat="45.526387" lon="5.680170">
        <ele>284.810536</ele>
        <time>2026-05-04T09:00:32.487Z</time>
      </trkpt>
      <trkpt lat="45.526490" lon="5.680201">
        <ele>285.089139</ele>
        <time>2026-05-04T09:00:43.655Z</time>
      </trkpt>
      <trkpt lat="45.526522" lon="5.679784">
        <ele>285.866971</ele>
        <time>2026-05-04T09:01:14.959Z</time>
      </trkpt>
      <trkpt lat="45.526583" lon="5.679642">
        <ele>286.175826</ele>
        <time>2026-05-04T09:01:27.346Z</time>
      </trkpt>
      <trkpt lat="45.526698" lon="5.679422">
        <ele>286.549685</ele>
        <time>2026-05-04T09:01:47.775Z</time>
      </trkpt>
      <trkpt lat="45.527448" lon="5.677982">
        <ele>288.368416</ele>
        <time>2026-05-04T09:03:59.874Z</time>
      </trkpt>
      <trkpt lat="45.528090" lon="5.676750">
        <ele>289.573615</ele>
        <time>2026-05-04T09:05:52.723Z</time>
      </trkpt>
      <trkpt lat="45.528257" lon="5.676442">
        <ele>289.820242</ele>
        <time>2026-05-04T09:06:20.960Z</time>
      </trkpt>
      <trkpt lat="45.529007" lon="5.675043">
        <ele>290.339309</ele>
        <time>2026-05-04T09:08:27.134Z</time>
      </trkpt>
      <trkpt lat="45.529097" lon="5.674776">
        <ele>290.178215</ele>
        <time>2026-05-04T09:08:47.983Z</time>
      </trkpt>
      <trkpt lat="45.529200" lon="5.674471">
        <ele>289.994130</ele>
        <time>2026-05-04T09:09:11.819Z</time>
      </trkpt>
      <trkpt lat="45.529046" lon="5.674372">
        <ele>289.863053</ele>
        <time>2026-05-04T09:09:28.930Z</time>
      </trkpt>
      <trkpt lat="45.528973" lon="5.674366">
        <ele>289.806305</ele>
        <time>2026-05-04T09:09:36.292Z</time>
      </trkpt>
      <trkpt lat="45.528790" lon="5.674468">
        <ele>289.653838</ele>
        <time>2026-05-04T09:09:56.265Z</time>
      </trkpt>
      <trkpt lat="45.528410" lon="5.674510">
        <ele>289.358044</ele>
        <time>2026-05-04T09:10:35.530Z</time>
      </trkpt>
      <trkpt lat="45.527722" lon="5.674526">
        <ele>286.836772</ele>
        <time>2026-05-04T09:11:48.625Z</time>
      </trkpt>
      <trkpt lat="45.527295" lon="5.674557">
        <ele>284.835232</ele>
        <time>2026-05-04T09:12:35.508Z</time>
      </trkpt>
      <trkpt lat="45.526437" lon="5.674488">
        <ele>280.812224</ele>
        <time>2026-05-04T09:14:11.927Z</time>
      </trkpt>
      <trkpt lat="45.526117" lon="5.674290">
        <ele>279.111167</ele>
        <time>2026-05-04T09:14:51.224Z</time>
      </trkpt>
      <trkpt lat="45.525917" lon="5.674171">
        <ele>278.054003</ele>
        <time>2026-05-04T09:15:15.508Z</time>
      </trkpt>
      <trkpt lat="45.525837" lon="5.674178">
        <ele>277.662958</ele>
        <time>2026-05-04T09:15:24.430Z</time>
      </trkpt>
      <trkpt lat="45.525569" lon="5.674618">
        <ele>275.670072</ele>
        <time>2026-05-04T09:16:09.804Z</time>
      </trkpt>
      <trkpt lat="45.525399" lon="5.674745">
        <ele>274.733926</ele>
        <time>2026-05-04T09:16:30.919Z</time>
      </trkpt>
      <trkpt lat="45.524850" lon="5.675020">
        <ele>271.983972</ele>
        <time>2026-05-04T09:17:33.637Z</time>
      </trkpt>
      <trkpt lat="45.524353" lon="5.675030">
        <ele>271.238096</ele>
        <time>2026-05-04T09:18:26.051Z</time>
      </trkpt>
      <trkpt lat="45.524490" lon="5.673149">
        <ele>269.334592</ele>
        <time>2026-05-04T09:20:41.390Z</time>
      </trkpt>
      <trkpt lat="45.524792" lon="5.670269">
        <ele>269.901169</ele>
        <time>2026-05-04T09:24:08.640Z</time>
      </trkpt>
      <trkpt lat="45.524835" lon="5.669670">
        <ele>270.197331</ele>
        <time>2026-05-04T09:24:51.633Z</time>
      </trkpt>
      <trkpt lat="45.523944" lon="5.669173">
        <ele>270.868921</ele>
        <time>2026-05-04T09:26:29.729Z</time>
      </trkpt>
      <trkpt lat="45.520155" lon="5.666945">
        <ele>276.177814</ele>
        <time>2026-05-04T09:33:38.733Z</time>
      </trkpt>
      <trkpt lat="45.520690" lon="5.664935">
        <ele>278.744674</ele>
        <time>2026-05-04T09:36:18.965Z</time>
      </trkpt>
      <trkpt lat="45.521189" lon="5.663785">
        <ele>280.971964</ele>
        <time>2026-05-04T09:37:59.810Z</time>
      </trkpt>
      <trkpt lat="45.521601" lon="5.662658">
        <ele>283.282174</ele>
        <time>2026-05-04T09:39:37.639Z</time>
      </trkpt>
      <trkpt lat="45.521781" lon="5.661345">
        <ele>287.190990</ele>
        <time>2026-05-04T09:41:25.900Z</time>
      </trkpt>
      <trkpt lat="45.521721" lon="5.660449">
        <ele>289.820680</ele>
        <time>2026-05-04T09:42:39.281Z</time>
      </trkpt>
      <trkpt lat="45.521385" lon="5.660860">
        <ele>291.108988</ele>
        <time>2026-05-04T09:43:30.202Z</time>
      </trkpt>
      <trkpt lat="45.521086" lon="5.661070">
        <ele>291.938191</ele>
        <time>2026-05-04T09:44:08.060Z</time>
      </trkpt>
      <trkpt lat="45.520890" lon="5.661105">
        <ele>292.429700</ele>
        <time>2026-05-04T09:44:30.028Z</time>
      </trkpt>
      <trkpt lat="45.520408" lon="5.660980">
        <ele>293.648698</ele>
        <time>2026-05-04T09:45:22.865Z</time>
      </trkpt>
      <trkpt lat="45.520279" lon="5.660897">
        <ele>294.000798</ele>
        <time>2026-05-04T09:45:37.733Z</time>
      </trkpt>
      <trkpt lat="45.520319" lon="5.660751">
        <ele>294.274108</ele>
        <time>2026-05-04T09:45:49.157Z</time>
      </trkpt>
      <trkpt lat="45.519898" lon="5.660539">
        <ele>294.273426</ele>
        <time>2026-05-04T09:46:33.953Z</time>
      </trkpt>
      <trkpt lat="45.519554" lon="5.660482">
        <ele>293.601449</ele>
        <time>2026-05-04T09:47:09.493Z</time>
      </trkpt>
      <trkpt lat="45.518842" lon="5.660190">
        <ele>292.163984</ele>
        <time>2026-05-04T09:48:27.863Z</time>
      </trkpt>
      <trkpt lat="45.518821" lon="5.660181">
        <ele>292.121438</ele>
        <time>2026-05-04T09:48:30.246Z</time>
      </trkpt>
      <trkpt lat="45.518569" lon="5.660213">
        <ele>291.630529</ele>
        <time>2026-05-04T09:48:57.319Z</time>
      </trkpt>
      <trkpt lat="45.518278" lon="5.660306">
        <ele>291.030515</ele>
        <time>2026-05-04T09:49:29.119Z</time>
      </trkpt>
      <trkpt lat="45.518238" lon="5.660353">
        <ele>290.920142</ele>
        <time>2026-05-04T09:49:34.670Z</time>
      </trkpt>
      <trkpt lat="45.518208" lon="5.660455">
        <ele>290.755025</ele>
        <time>2026-05-04T09:49:42.921Z</time>
      </trkpt>
      <trkpt lat="45.518140" lon="5.661974">
        <ele>288.483106</ele>
        <time>2026-05-04T09:51:34.974Z</time>
      </trkpt>
      <trkpt lat="45.518127" lon="5.663908">
        <ele>287.099167</ele>
        <time>2026-05-04T09:53:53.104Z</time>
      </trkpt>
      <trkpt lat="45.518144" lon="5.664029">
        <ele>287.065211</ele>
        <time>2026-05-04T09:54:01.860Z</time>
      </trkpt>
      <trkpt lat="45.518212" lon="5.664136">
        <ele>287.025465</ele>
        <time>2026-05-04T09:54:12.093Z</time>
      </trkpt>
      <trkpt lat="45.518310" lon="5.664192">
        <ele>286.984011</ele>
        <time>2026-05-04T09:54:22.855Z</time>
      </trkpt>
      <trkpt lat="45.519174" lon="5.664518">
        <ele>286.517150</ele>
        <time>2026-05-04T09:55:52.960Z</time>
      </trkpt>
      <trkpt lat="45.518668" lon="5.666047">
        <ele>285.509566</ele>
        <time>2026-05-04T09:57:53.399Z</time>
      </trkpt>
      <trkpt lat="45.518510" lon="5.666503">
        <ele>285.206443</ele>
        <time>2026-05-04T09:58:30.690Z</time>
      </trkpt>
      <trkpt lat="45.518401" lon="5.666960">
        <ele>284.848652</ele>
        <time>2026-05-04T09:59:05.955Z</time>
      </trkpt>
      <trkpt lat="45.517897" lon="5.666743">
        <ele>284.290462</ele>
        <time>2026-05-04T10:00:00.495Z</time>
      </trkpt>
      <trkpt lat="45.517573" lon="5.666743">
        <ele>283.946919</ele>
        <time>2026-05-04T10:00:33.718Z</time>
      </trkpt>
      <trkpt lat="45.517288" lon="5.666780">
        <ele>283.643480</ele>
        <time>2026-05-04T10:01:02.917Z</time>
      </trkpt>
      <trkpt lat="45.516912" lon="5.666872">
        <ele>283.379447</ele>
        <time>2026-05-04T10:01:41.226Z</time>
      </trkpt>
      <trkpt lat="45.516894" lon="5.666788">
        <ele>283.475537</ele>
        <time>2026-05-04T10:01:47.431Z</time>
      </trkpt>
      <trkpt lat="45.516453" lon="5.666786">
        <ele>284.164020</ele>
        <time>2026-05-04T10:02:33.340Z</time>
      </trkpt>
      <trkpt lat="45.516250" lon="5.666561">
        <ele>284.565293</ele>
        <time>2026-05-04T10:03:00.648Z</time>
      </trkpt>
      <trkpt lat="45.516092" lon="5.666217">
        <ele>285.015243</ele>
        <time>2026-05-04T10:03:31.532Z</time>
      </trkpt>
      <trkpt lat="45.515903" lon="5.666038">
        <ele>285.369369</ele>
        <time>2026-05-04T10:03:56.117Z</time>
      </trkpt>
      <trkpt lat="45.515732" lon="5.665960">
        <ele>285.649636</ele>
        <time>2026-05-04T10:04:15.609Z</time>
      </trkpt>
      <trkpt lat="45.515040" lon="5.666131">
        <ele>287.089539</ele>
        <time>2026-05-04T10:05:31.653Z</time>
      </trkpt>
      <trkpt lat="45.514845" lon="5.666131">
        <ele>287.556787</ele>
        <time>2026-05-04T10:05:52.725Z</time>
      </trkpt>
      <trkpt lat="45.514664" lon="5.666046">
        <ele>288.013367</ele>
        <time>2026-05-04T10:06:13.182Z</time>
      </trkpt>
      <trkpt lat="45.514408" lon="5.665799">
        <ele>288.753820</ele>
        <time>2026-05-04T10:06:46.363Z</time>
      </trkpt>
      <trkpt lat="45.514159" lon="5.665340">
        <ele>289.728465</ele>
        <time>2026-05-04T10:07:30.251Z</time>
      </trkpt>
      <trkpt lat="45.514095" lon="5.664806">
        <ele>290.861158</ele>
        <time>2026-05-04T10:08:11.636Z</time>
      </trkpt>
      <trkpt lat="45.513609" lon="5.664130">
        <ele>294.103092</ele>
        <time>2026-05-04T10:09:28.165Z</time>
      </trkpt>
      <trkpt lat="45.513281" lon="5.663925">
        <ele>295.813606</ele>
        <time>2026-05-04T10:10:10.148Z</time>
      </trkpt>
      <trkpt lat="45.513049" lon="5.663854">
        <ele>296.947052</ele>
        <time>2026-05-04T10:10:38.569Z</time>
      </trkpt>
      <trkpt lat="45.512978" lon="5.663791">
        <ele>297.346432</ele>
        <time>2026-05-04T10:10:48.613Z</time>
      </trkpt>
      <trkpt lat="45.512440" lon="5.663716">
        <ele>300.457035</ele>
        <time>2026-05-04T10:11:55.040Z</time>
      </trkpt>
      <trkpt lat="45.512305" lon="5.663740">
        <ele>301.478908</ele>
        <time>2026-05-04T10:12:11.910Z</time>
      </trkpt>
      <trkpt lat="45.512183" lon="5.663707">
        <ele>302.411612</ele>
        <time>2026-05-04T10:12:27.504Z</time>
      </trkpt>
      <trkpt lat="45.510542" lon="5.662315">
        <ele>315.193955</ele>
        <time>2026-05-04T10:16:29.777Z</time>
      </trkpt>
      <trkpt lat="45.510258" lon="5.661776">
        <ele>317.438562</ele>
        <time>2026-05-04T10:17:26.877Z</time>
      </trkpt>
      <trkpt lat="45.510032" lon="5.661543">
        <ele>318.762850</ele>
        <time>2026-05-04T10:17:58.653Z</time>
      </trkpt>
      <trkpt lat="45.509988" lon="5.661457">
        <ele>319.117275</ele>
        <time>2026-05-04T10:18:07.009Z</time>
      </trkpt>
      <trkpt lat="45.510321" lon="5.661014">
        <ele>320.949017</ele>
        <time>2026-05-04T10:18:55.243Z</time>
      </trkpt>
      <trkpt lat="45.510595" lon="5.660555">
        <ele>319.949776</ele>
        <time>2026-05-04T10:19:38.444Z</time>
      </trkpt>
      <trkpt lat="45.511188" lon="5.659565">
        <ele>317.791460</ele>
        <time>2026-05-04T10:21:16.764Z</time>
      </trkpt>
      <trkpt lat="45.512169" lon="5.658379">
        <ele>314.690093</ele>
        <time>2026-05-04T10:23:33.843Z</time>
      </trkpt>
      <trkpt lat="45.512733" lon="5.657848">
        <ele>313.044893</ele>
        <time>2026-05-04T10:24:44.145Z</time>
      </trkpt>
      <trkpt lat="45.513495" lon="5.656995">
        <ele>311.660836</ele>
        <time>2026-05-04T10:26:23.872Z</time>
      </trkpt>
      <trkpt lat="45.514101" lon="5.656394">
        <ele>310.870316</ele>
        <time>2026-05-04T10:27:39.803Z</time>
      </trkpt>
      <trkpt lat="45.514352" lon="5.656049">
        <ele>310.504848</ele>
        <time>2026-05-04T10:28:15.170Z</time>
      </trkpt>
      <trkpt lat="45.514462" lon="5.655819">
        <ele>311.025947</ele>
        <time>2026-05-04T10:28:34.664Z</time>
      </trkpt>
      <trkpt lat="45.514584" lon="5.655414">
        <ele>311.850897</ele>
        <time>2026-05-04T10:29:06.432Z</time>
      </trkpt>
      <trkpt lat="45.514375" lon="5.655588">
        <ele>312.497075</ele>
        <time>2026-05-04T10:29:32.073Z</time>
      </trkpt>
      <trkpt lat="45.514260" lon="5.655647">
        <ele>312.823431</ele>
        <time>2026-05-04T10:29:45.262Z</time>
      </trkpt>
      <trkpt lat="45.513578" lon="5.655736">
        <ele>314.652341</ele>
        <time>2026-05-04T10:31:02.845Z</time>
      </trkpt>
      <trkpt lat="45.512936" lon="5.655298">
        <ele>318.519636</ele>
        <time>2026-05-04T10:32:28.170Z</time>
      </trkpt>
      <trkpt lat="45.512611" lon="5.655199">
        <ele>320.803531</ele>
        <time>2026-05-04T10:33:09.369Z</time>
      </trkpt>
      <trkpt lat="45.512097" lon="5.654952">
        <ele>324.530927</ele>
        <time>2026-05-04T10:34:19.389Z</time>
      </trkpt>
      <trkpt lat="45.511832" lon="5.654906">
        <ele>326.365574</ele>
        <time>2026-05-04T10:34:53.300Z</time>
      </trkpt>
      <trkpt lat="45.511671" lon="5.654834">
        <ele>327.525115</ele>
        <time>2026-05-04T10:35:14.421Z</time>
      </trkpt>
      <trkpt lat="45.511233" lon="5.654532">
        <ele>329.477972</ele>
        <time>2026-05-04T10:36:13.436Z</time>
      </trkpt>
      <trkpt lat="45.511242" lon="5.653347">
        <ele>332.709108</ele>
        <time>2026-05-04T10:37:48.239Z</time>
      </trkpt>
      <trkpt lat="45.511197" lon="5.651764">
        <ele>334.761649</ele>
        <time>2026-05-04T10:39:42.648Z</time>
      </trkpt>
      <trkpt lat="45.511189" lon="5.651645">
        <ele>334.775375</ele>
        <time>2026-05-04T10:39:51.216Z</time>
      </trkpt>
      <trkpt lat="45.511105" lon="5.651283">
        <ele>334.819160</ele>
        <time>2026-05-04T10:40:18.362Z</time>
      </trkpt>
      <trkpt lat="45.511029" lon="5.651164">
        <ele>334.837647</ele>
        <time>2026-05-04T10:40:29.619Z</time>
      </trkpt>
      <trkpt lat="45.510640" lon="5.651101">
        <ele>334.901794</ele>
        <time>2026-05-04T10:41:09.136Z</time>
      </trkpt>
      <trkpt lat="45.510472" lon="5.651284">
        <ele>334.936425</ele>
        <time>2026-05-04T10:41:30.683Z</time>
      </trkpt>
      <trkpt lat="45.510406" lon="5.651289">
        <ele>334.947254</ele>
        <time>2026-05-04T10:41:37.493Z</time>
      </trkpt>
      <trkpt lat="45.509801" lon="5.651058">
        <ele>335.846918</ele>
        <time>2026-05-04T10:42:41.484Z</time>
      </trkpt>
      <trkpt lat="45.509291" lon="5.650825">
        <ele>336.685154</ele>
        <time>2026-05-04T10:43:35.731Z</time>
      </trkpt>
      <trkpt lat="45.509243" lon="5.650681">
        <ele>336.860077</ele>
        <time>2026-05-04T10:43:47.533Z</time>
      </trkpt>
      <trkpt lat="45.509052" lon="5.650567">
        <ele>337.184155</ele>
        <time>2026-05-04T10:44:10.142Z</time>
      </trkpt>
      <trkpt lat="45.508862" lon="5.650454">
        <ele>337.506366</ele>
        <time>2026-05-04T10:44:33.354Z</time>
      </trkpt>
      <trkpt lat="45.508217" lon="5.650299">
        <ele>341.529396</ele>
        <time>2026-05-04T10:45:53.253Z</time>
      </trkpt>
      <trkpt lat="45.507787" lon="5.650153">
        <ele>344.958618</ele>
        <time>2026-05-04T10:46:50.891Z</time>
      </trkpt>
      <trkpt lat="45.506866" lon="5.649501">
        <ele>352.816219</ele>
        <time>2026-05-04T10:49:04.377Z</time>
      </trkpt>
      <trkpt lat="45.506784" lon="5.649356">
        <ele>353.729628</ele>
        <time>2026-05-04T10:49:21.153Z</time>
      </trkpt>
      <trkpt lat="45.506700" lon="5.649414">
        <ele>354.382401</ele>
        <time>2026-05-04T10:49:33.114Z</time>
      </trkpt>
      <trkpt lat="45.506541" lon="5.649651">
        <ele>355.990810</ele>
        <time>2026-05-04T10:50:02.275Z</time>
      </trkpt>
      <trkpt lat="45.506317" lon="5.650442">
        <ele>360.173219</ele>
        <time>2026-05-04T10:51:16.415Z</time>
      </trkpt>
      <trkpt lat="45.506253" lon="5.650777">
        <ele>361.875453</ele>
        <time>2026-05-04T10:51:45.564Z</time>
      </trkpt>
      <trkpt lat="45.506019" lon="5.651415">
        <ele>365.080717</ele>
        <time>2026-05-04T10:52:45.943Z</time>
      </trkpt>
      <trkpt lat="45.505981" lon="5.651585">
        <ele>365.696463</ele>
        <time>2026-05-04T10:53:00.761Z</time>
      </trkpt>
      <trkpt lat="45.505905" lon="5.652754">
        <ele>369.747733</ele>
        <time>2026-05-04T10:54:37.081Z</time>
      </trkpt>
      <trkpt lat="45.505896" lon="5.653566">
        <ele>372.550110</ele>
        <time>2026-05-04T10:55:42.805Z</time>
      </trkpt>
      <trkpt lat="45.505853" lon="5.654027">
        <ele>374.077086</ele>
        <time>2026-05-04T10:56:20.634Z</time>
      </trkpt>
      <trkpt lat="45.505588" lon="5.655352">
        <ele>378.458124</ele>
        <time>2026-05-04T10:58:13.274Z</time>
      </trkpt>
      <trkpt lat="45.505546" lon="5.655691">
        <ele>379.552693</ele>
        <time>2026-05-04T10:58:41.312Z</time>
      </trkpt>
      <trkpt lat="45.505530" lon="5.656916">
        <ele>382.546293</ele>
        <time>2026-05-04T11:00:19.965Z</time>
      </trkpt>
      <trkpt lat="45.505316" lon="5.658565">
        <ele>385.613862</ele>
        <time>2026-05-04T11:02:28.298Z</time>
      </trkpt>
      <trkpt lat="45.505237" lon="5.659455">
        <ele>385.157385</ele>
        <time>2026-05-04T11:03:31.386Z</time>
      </trkpt>
      <trkpt lat="45.505176" lon="5.659857">
        <ele>384.632986</ele>
        <time>2026-05-04T11:04:00.960Z</time>
      </trkpt>
      <trkpt lat="45.505067" lon="5.660436">
        <ele>383.868631</ele>
        <time>2026-05-04T11:04:45.201Z</time>
      </trkpt>
      <trkpt lat="45.504988" lon="5.661208">
        <ele>382.873942</ele>
        <time>2026-05-04T11:05:43.853Z</time>
      </trkpt>
      <trkpt lat="45.505177" lon="5.661373">
        <ele>382.192710</ele>
        <time>2026-05-04T11:06:07.844Z</time>
      </trkpt>
      <trkpt lat="45.505237" lon="5.661719">
        <ele>381.280286</ele>
        <time>2026-05-04T11:06:34.978Z</time>
      </trkpt>
      <trkpt lat="45.505412" lon="5.662329">
        <ele>379.593008</ele>
        <time>2026-05-04T11:07:25.104Z</time>
      </trkpt>
      <trkpt lat="45.505132" lon="5.664477">
        <ele>375.460729</ele>
        <time>2026-05-04T11:10:08.960Z</time>
      </trkpt>
      <trkpt lat="45.505053" lon="5.664894">
        <ele>375.096806</ele>
        <time>2026-05-04T11:10:40.049Z</time>
      </trkpt>
      <trkpt lat="45.504940" lon="5.665306">
        <ele>374.724071</ele>
        <time>2026-05-04T11:11:11.334Z</time>
      </trkpt>
      <trkpt lat="45.504724" lon="5.665802">
        <ele>374.232101</ele>
        <time>2026-05-04T11:11:52.830Z</time>
      </trkpt>
      <trkpt lat="45.504420" lon="5.666202">
        <ele>373.988888</ele>
        <time>2026-05-04T11:12:35.471Z</time>
      </trkpt>
      <trkpt lat="45.504072" lon="5.666350">
        <ele>373.948020</ele>
        <time>2026-05-04T11:13:13.185Z</time>
      </trkpt>
      <trkpt lat="45.503577" lon="5.666274">
        <ele>373.891989</ele>
        <time>2026-05-04T11:14:03.820Z</time>
      </trkpt>
      <trkpt lat="45.503389" lon="5.667233">
        <ele>373.813441</ele>
        <time>2026-05-04T11:15:14.988Z</time>
      </trkpt>
      <trkpt lat="45.503097" lon="5.668424">
        <ele>372.492811</ele>
        <time>2026-05-04T11:16:47.096Z</time>
      </trkpt>
      <trkpt lat="45.502784" lon="5.668264">
        <ele>371.992788</ele>
        <time>2026-05-04T11:17:21.731Z</time>
      </trkpt>
      <trkpt lat="45.502489" lon="5.667998">
        <ele>371.467962</ele>
        <time>2026-05-04T11:17:57.814Z</time>
      </trkpt>
      <trkpt lat="45.502038" lon="5.667401">
        <ele>371.450942</ele>
        <time>2026-05-04T11:19:00.547Z</time>
      </trkpt>
      <trkpt lat="45.501872" lon="5.667123">
        <ele>371.684843</ele>
        <time>2026-05-04T11:19:26.422Z</time>
      </trkpt>
      <trkpt lat="45.501772" lon="5.666855">
        <ele>371.879293</ele>
        <time>2026-05-04T11:19:48.437Z</time>
      </trkpt>
      <trkpt lat="45.501519" lon="5.666438">
        <ele>372.232525</ele>
        <time>2026-05-04T11:20:29.660Z</time>
      </trkpt>
      <trkpt lat="45.500809" lon="5.665556">
        <ele>373.935160</ele>
        <time>2026-05-04T11:22:10.652Z</time>
      </trkpt>
      <trkpt lat="45.500740" lon="5.665377">
        <ele>374.388719</ele>
        <time>2026-05-04T11:22:25.910Z</time>
      </trkpt>
      <trkpt lat="45.500682" lon="5.665053">
        <ele>375.131163</ele>
        <time>2026-05-04T11:22:51.272Z</time>
      </trkpt>
      <trkpt lat="45.500644" lon="5.664600">
        <ele>376.144104</ele>
        <time>2026-05-04T11:23:26.298Z</time>
      </trkpt>
      <trkpt lat="45.500594" lon="5.664444">
        <ele>376.524956</ele>
        <time>2026-05-04T11:23:39.688Z</time>
      </trkpt>
      <trkpt lat="45.500572" lon="5.664376">
        <ele>376.691240</ele>
        <time>2026-05-04T11:23:45.556Z</time>
      </trkpt>
      <trkpt lat="45.500495" lon="5.664237">
        <ele>377.084602</ele>
        <time>2026-05-04T11:23:59.487Z</time>
      </trkpt>
      <trkpt lat="45.500394" lon="5.664090">
        <ele>377.541635</ele>
        <time>2026-05-04T11:24:15.891Z</time>
      </trkpt>
      <trkpt lat="45.500323" lon="5.664055">
        <ele>377.779587</ele>
        <time>2026-05-04T11:24:24.550Z</time>
      </trkpt>
      <trkpt lat="45.499789" lon="5.663930">
        <ele>380.735192</ele>
        <time>2026-05-04T11:25:27.705Z</time>
      </trkpt>
      <trkpt lat="45.499227" lon="5.663901">
        <ele>384.632922</ele>
        <time>2026-05-04T11:26:39.234Z</time>
      </trkpt>
      <trkpt lat="45.499070" lon="5.664321">
        <ele>386.945322</ele>
        <time>2026-05-04T11:27:23.215Z</time>
      </trkpt>
      <trkpt lat="45.499051" lon="5.664351">
        <ele>387.141746</ele>
        <time>2026-05-04T11:27:27.001Z</time>
      </trkpt>
      <trkpt lat="45.498997" lon="5.664437">
        <ele>387.702662</ele>
        <time>2026-05-04T11:27:37.810Z</time>
      </trkpt>
      <trkpt lat="45.498904" lon="5.664498">
        <ele>388.412096</ele>
        <time>2026-05-04T11:27:51.486Z</time>
      </trkpt>
      <trkpt lat="45.498750" lon="5.664485">
        <ele>389.481326</ele>
        <time>2026-05-04T11:28:11.397Z</time>
      </trkpt>
      <trkpt lat="45.498433" lon="5.664287">
        <ele>390.848336</ele>
        <time>2026-05-04T11:28:52.718Z</time>
      </trkpt>
      <trkpt lat="45.498396" lon="5.664284">
        <ele>390.830578</ele>
        <time>2026-05-04T11:28:57.149Z</time>
      </trkpt>
      <trkpt lat="45.498166" lon="5.664455">
        <ele>390.706297</ele>
        <time>2026-05-04T11:29:26.211Z</time>
      </trkpt>
      <trkpt lat="45.498018" lon="5.664720">
        <ele>390.592490</ele>
        <time>2026-05-04T11:29:52.480Z</time>
      </trkpt>
      <trkpt lat="45.498009" lon="5.665527">
        <ele>390.321402</ele>
        <time>2026-05-04T11:30:50.038Z</time>
      </trkpt>
      <trkpt lat="45.497964" lon="5.665804">
        <ele>390.225897</ele>
        <time>2026-05-04T11:31:11.550Z</time>
      </trkpt>
      <trkpt lat="45.497787" lon="5.666565">
        <ele>388.661290</ele>
        <time>2026-05-04T11:32:16.078Z</time>
      </trkpt>
      <trkpt lat="45.497560" lon="5.667339">
        <ele>384.599153</ele>
        <time>2026-05-04T11:33:24.286Z</time>
      </trkpt>
      <trkpt lat="45.498205" lon="5.668082">
        <ele>378.873036</ele>
        <time>2026-05-04T11:35:00.796Z</time>
      </trkpt>
      <trkpt lat="45.498740" lon="5.668605">
        <ele>378.000011</ele>
        <time>2026-05-04T11:36:11.134Z</time>
      </trkpt>
      <trkpt lat="45.498591" lon="5.668616">
        <ele>378.117981</ele>
        <time>2026-05-04T11:36:26.454Z</time>
      </trkpt>
      <trkpt lat="45.497687" lon="5.667986">
        <ele>378.913482</ele>
        <time>2026-05-04T11:38:17.585Z</time>
      </trkpt>
      <trkpt lat="45.497395" lon="5.668012">
        <ele>379.670394</ele>
        <time>2026-05-04T11:38:52.860Z</time>
      </trkpt>
      <trkpt lat="45.497197" lon="5.668089">
        <ele>380.748831</ele>
        <time>2026-05-04T11:39:17.314Z</time>
      </trkpt>
      <trkpt lat="45.497046" lon="5.668179">
        <ele>381.608788</ele>
        <time>2026-05-04T11:39:36.723Z</time>
      </trkpt>
      <trkpt lat="45.497009" lon="5.668338">
        <ele>382.225882</ele>
        <time>2026-05-04T11:39:50.766Z</time>
      </trkpt>
      <trkpt lat="45.497172" lon="5.668921">
        <ele>384.537836</ele>
        <time>2026-05-04T11:40:43.792Z</time>
      </trkpt>
      <trkpt lat="45.497213" lon="5.669416">
        <ele>386.373806</ele>
        <time>2026-05-04T11:41:25.696Z</time>
      </trkpt>
      <trkpt lat="45.497172" lon="5.669665">
        <ele>387.315939</ele>
        <time>2026-05-04T11:41:47.047Z</time>
      </trkpt>
      <trkpt lat="45.496911" lon="5.670069">
        <ele>389.153533</ele>
        <time>2026-05-04T11:42:31.346Z</time>
      </trkpt>
      <trkpt lat="45.496754" lon="5.670437">
        <ele>390.387131</ele>
        <time>2026-05-04T11:43:06.171Z</time>
      </trkpt>
      <trkpt lat="45.496619" lon="5.670822">
        <ele>391.619822</ele>
        <time>2026-05-04T11:43:41.451Z</time>
      </trkpt>
      <trkpt lat="45.496361" lon="5.671712">
        <ele>394.377676</ele>
        <time>2026-05-04T11:44:59.033Z</time>
      </trkpt>
      <trkpt lat="45.496278" lon="5.671877">
        <ele>394.959228</ele>
        <time>2026-05-04T11:45:14.848Z</time>
      </trkpt>
      <trkpt lat="45.496103" lon="5.672430">
        <ele>396.330849</ele>
        <time>2026-05-04T11:46:01.511Z</time>
      </trkpt>
      <trkpt lat="45.495881" lon="5.673100">
        <ele>397.534825</ele>
        <time>2026-05-04T11:46:58.119Z</time>
      </trkpt>
      <trkpt lat="45.495420" lon="5.674744">
        <ele>400.362423</ele>
        <time>2026-05-04T11:49:11.347Z</time>
      </trkpt>
      <trkpt lat="45.494858" lon="5.676353">
        <ele>402.917039</ele>
        <time>2026-05-04T11:51:25.165Z</time>
      </trkpt>
      <trkpt lat="45.494401" lon="5.677928">
        <ele>408.635558</ele>
        <time>2026-05-04T11:53:35.894Z</time>
      </trkpt>
      <trkpt lat="45.494383" lon="5.677653">
        <ele>409.801278</ele>
        <time>2026-05-04T11:53:58.729Z</time>
      </trkpt>
      <trkpt lat="45.494288" lon="5.677359">
        <ele>411.167632</ele>
        <time>2026-05-04T11:54:26.463Z</time>
      </trkpt>
      <trkpt lat="45.493971" lon="5.676755">
        <ele>414.352248</ele>
        <time>2026-05-04T11:55:36.634Z</time>
      </trkpt>
      <trkpt lat="45.493629" lon="5.676341">
        <ele>420.187374</ele>
        <time>2026-05-04T11:56:42.619Z</time>
      </trkpt>
      <trkpt lat="45.493290" lon="5.676063">
        <ele>425.427811</ele>
        <time>2026-05-04T11:57:43.971Z</time>
      </trkpt>
      <trkpt lat="45.493051" lon="5.675979">
        <ele>428.726654</ele>
        <time>2026-05-04T11:58:24.250Z</time>
      </trkpt>
      <trkpt lat="45.492929" lon="5.676080">
        <ele>430.617073</ele>
        <time>2026-05-04T11:58:47.778Z</time>
      </trkpt>
      <trkpt lat="45.492656" lon="5.676492">
        <ele>435.943243</ele>
        <time>2026-05-04T11:59:53.425Z</time>
      </trkpt>
      <trkpt lat="45.492529" lon="5.676599">
        <ele>437.919975</ele>
        <time>2026-05-04T12:00:17.337Z</time>
      </trkpt>
      <trkpt lat="45.492156" lon="5.676814">
        <ele>442.728621</ele>
        <time>2026-05-04T12:01:18.680Z</time>
      </trkpt>
      <trkpt lat="45.492062" lon="5.676951">
        <ele>444.306751</ele>
        <time>2026-05-04T12:01:37.522Z</time>
      </trkpt>
      <trkpt lat="45.492013" lon="5.677181">
        <ele>446.285662</ele>
        <time>2026-05-04T12:02:01.269Z</time>
      </trkpt>
      <trkpt lat="45.491919" lon="5.677376">
        <ele>448.233857</ele>
        <time>2026-05-04T12:02:24.566Z</time>
      </trkpt>
      <trkpt lat="45.491734" lon="5.677543">
        <ele>450.804824</ele>
        <time>2026-05-04T12:02:55.046Z</time>
      </trkpt>
      <trkpt lat="45.491646" lon="5.677778">
        <ele>452.998117</ele>
        <time>2026-05-04T12:03:20.552Z</time>
      </trkpt>
      <trkpt lat="45.491401" lon="5.678199">
        <ele>457.502503</ele>
        <time>2026-05-04T12:04:12.268Z</time>
      </trkpt>
      <trkpt lat="45.491366" lon="5.678372">
        <ele>458.984812</ele>
        <time>2026-05-04T12:04:29.163Z</time>
      </trkpt>
      <trkpt lat="45.491245" lon="5.678614">
        <ele>461.563827</ele>
        <time>2026-05-04T12:04:57.189Z</time>
      </trkpt>
      <trkpt lat="45.490991" lon="5.678803">
        <ele>465.187919</ele>
        <time>2026-05-04T12:05:36.096Z</time>
      </trkpt>
      <trkpt lat="45.490886" lon="5.678837">
        <ele>466.550009</ele>
        <time>2026-05-04T12:05:51.021Z</time>
      </trkpt>
      <trkpt lat="45.490525" lon="5.678790">
        <ele>471.135805</ele>
        <time>2026-05-04T12:06:42.957Z</time>
      </trkpt>
      <trkpt lat="45.490361" lon="5.678626">
        <ele>473.669492</ele>
        <time>2026-05-04T12:07:12.650Z</time>
      </trkpt>
      <trkpt lat="45.490296" lon="5.678486">
        <ele>475.158665</ele>
        <time>2026-05-04T12:07:30.363Z</time>
      </trkpt>
      <trkpt lat="45.490268" lon="5.678017">
        <ele>479.332978</ele>
        <time>2026-05-04T12:08:21.592Z</time>
      </trkpt>
      <trkpt lat="45.490104" lon="5.677670">
        <ele>483.206776</ele>
        <time>2026-05-04T12:09:09.167Z</time>
      </trkpt>
      <trkpt lat="45.489753" lon="5.677269">
        <ele>490.524405</ele>
        <time>2026-05-04T12:10:27.184Z</time>
      </trkpt>
      <trkpt lat="45.489612" lon="5.677150">
        <ele>493.190320</ele>
        <time>2026-05-04T12:10:57.002Z</time>
      </trkpt>
      <trkpt lat="45.489362" lon="5.676835">
        <ele>498.618199</ele>
        <time>2026-05-04T12:11:58.465Z</time>
      </trkpt>
      <trkpt lat="45.489326" lon="5.676708">
        <ele>500.180921</ele>
        <time>2026-05-04T12:12:16.184Z</time>
      </trkpt>
      <trkpt lat="45.489357" lon="5.676433">
        <ele>503.358316</ele>
        <time>2026-05-04T12:12:51.650Z</time>
      </trkpt>
      <trkpt lat="45.489450" lon="5.676235">
        <ele>506.077127</ele>
        <time>2026-05-04T12:13:21.479Z</time>
      </trkpt>
      <trkpt lat="45.489598" lon="5.676076">
        <ele>509.092067</ele>
        <time>2026-05-04T12:13:53.822Z</time>
      </trkpt>
      <trkpt lat="45.489629" lon="5.675991">
        <ele>510.185078</ele>
        <time>2026-05-04T12:14:05.364Z</time>
      </trkpt>
      <trkpt lat="45.489607" lon="5.675736">
        <ele>512.762492</ele>
        <time>2026-05-04T12:14:35.532Z</time>
      </trkpt>
      <trkpt lat="45.489630" lon="5.675600">
        <ele>513.946900</ele>
        <time>2026-05-04T12:14:51.437Z</time>
      </trkpt>
      <trkpt lat="45.489583" lon="5.675469">
        <ele>515.192752</ele>
        <time>2026-05-04T12:15:07.731Z</time>
      </trkpt>
      <trkpt lat="45.489376" lon="5.675243">
        <ele>518.340750</ele>
        <time>2026-05-04T12:15:46.877Z</time>
      </trkpt>
      <trkpt lat="45.489061" lon="5.674823">
        <ele>523.547890</ele>
        <time>2026-05-04T12:16:46.637Z</time>
      </trkpt>
      <trkpt lat="45.488959" lon="5.674600">
        <ele>525.802140</ele>
        <time>2026-05-04T12:17:12.120Z</time>
      </trkpt>
      <trkpt lat="45.488585" lon="5.673948">
        <ele>532.934394</ele>
        <time>2026-05-04T12:18:31.497Z</time>
      </trkpt>
      <trkpt lat="45.488715" lon="5.673540">
        <ele>535.977331</ele>
        <time>2026-05-04T12:19:14.493Z</time>
      </trkpt>
      <trkpt lat="45.488866" lon="5.673456">
        <ele>537.483875</ele>
        <time>2026-05-04T12:19:36.256Z</time>
      </trkpt>
      <trkpt lat="45.488918" lon="5.673391">
        <ele>538.126557</ele>
        <time>2026-05-04T12:19:45.664Z</time>
      </trkpt>
      <trkpt lat="45.488994" lon="5.672928">
        <ele>541.225258</ele>
        <time>2026-05-04T12:20:30.190Z</time>
      </trkpt>
      <trkpt lat="45.489052" lon="5.672807">
        <ele>542.180436</ele>
        <time>2026-05-04T12:20:44.147Z</time>
      </trkpt>
      <trkpt lat="45.489367" lon="5.672779">
        <ele>545.114123</ele>
        <time>2026-05-04T12:21:26.555Z</time>
      </trkpt>
      <trkpt lat="45.489406" lon="5.672975">
        <ele>546.441781</ele>
        <time>2026-05-04T12:21:45.256Z</time>
      </trkpt>
      <trkpt lat="45.489500" lon="5.673147">
        <ele>547.862931</ele>
        <time>2026-05-04T12:22:04.867Z</time>
      </trkpt>
      <trkpt lat="45.489406" lon="5.672975">
        <ele>549.284082</ele>
        <time>2026-05-04T12:22:24.050Z</time>
      </trkpt>
      <trkpt lat="45.489367" lon="5.672779">
        <ele>550.349417</ele>
        <time>2026-05-04T12:22:41.740Z</time>
      </trkpt>
      <trkpt lat="45.489462" lon="5.672634">
        <ele>550.847339</ele>
        <time>2026-05-04T12:22:58.751Z</time>
      </trkpt>
      <trkpt lat="45.490026" lon="5.672067">
        <ele>553.316658</ele>
        <time>2026-05-04T12:24:18.465Z</time>
      </trkpt>
      <trkpt lat="45.490304" lon="5.671641">
        <ele>554.776812</ele>
        <time>2026-05-04T12:25:04.382Z</time>
      </trkpt>
      <trkpt lat="45.490378" lon="5.671432">
        <ele>555.364237</ele>
        <time>2026-05-04T12:25:22.423Z</time>
      </trkpt>
      <trkpt lat="45.490596" lon="5.669453">
        <ele>555.162059</ele>
        <time>2026-05-04T12:27:43.835Z</time>
      </trkpt>
      <trkpt lat="45.490596" lon="5.668341">
        <ele>554.031063</ele>
        <time>2026-05-04T12:29:07.064Z</time>
      </trkpt>
      <trkpt lat="45.490552" lon="5.667812">
        <ele>552.960350</ele>
        <time>2026-05-04T12:29:47.302Z</time>
      </trkpt>
      <trkpt lat="45.489962" lon="5.667264">
        <ele>550.941756</ele>
        <time>2026-05-04T12:31:01.947Z</time>
      </trkpt>
      <trkpt lat="45.489769" lon="5.667131">
        <ele>550.327211</ele>
        <time>2026-05-04T12:31:24.440Z</time>
      </trkpt>
      <trkpt lat="45.489468" lon="5.667008">
        <ele>549.429492</ele>
        <time>2026-05-04T12:31:56.755Z</time>
      </trkpt>
      <trkpt lat="45.489004" lon="5.666914">
        <ele>547.911424</ele>
        <time>2026-05-04T12:32:46.300Z</time>
      </trkpt>
      <trkpt lat="45.488712" lon="5.666797">
        <ele>546.870515</ele>
        <time>2026-05-04T12:33:19.114Z</time>
      </trkpt>
      <trkpt lat="45.488400" lon="5.666783">
        <ele>545.799223</ele>
        <time>2026-05-04T12:33:52.920Z</time>
      </trkpt>
      <trkpt lat="45.488005" lon="5.666436">
        <ele>544.207149</ele>
        <time>2026-05-04T12:34:43.368Z</time>
      </trkpt>
      <trkpt lat="45.487554" lon="5.666220">
        <ele>542.808540</ele>
        <time>2026-05-04T12:35:34.513Z</time>
      </trkpt>
      <trkpt lat="45.487173" lon="5.665964">
        <ele>542.875684</ele>
        <time>2026-05-04T12:36:19.010Z</time>
      </trkpt>
      <trkpt lat="45.487078" lon="5.665866">
        <ele>542.894375</ele>
        <time>2026-05-04T12:36:31.035Z</time>
      </trkpt>
      <trkpt lat="45.486865" lon="5.665508">
        <ele>542.946856</ele>
        <time>2026-05-04T12:37:04.219Z</time>
      </trkpt>
      <trkpt lat="45.486785" lon="5.665335">
        <ele>542.970020</ele>
        <time>2026-05-04T12:37:19.499Z</time>
      </trkpt>
      <trkpt lat="45.486672" lon="5.664977">
        <ele>543.013902</ele>
        <time>2026-05-04T12:37:49.365Z</time>
      </trkpt>
      <trkpt lat="45.486520" lon="5.664689">
        <ele>543.054194</ele>
        <time>2026-05-04T12:38:17.318Z</time>
      </trkpt>
      <trkpt lat="45.486136" lon="5.663830">
        <ele>542.986134</ele>
        <time>2026-05-04T12:39:36.182Z</time>
      </trkpt>
      <trkpt lat="45.485738" lon="5.663102">
        <ele>542.863587</ele>
        <time>2026-05-04T12:40:41.434Z</time>
      </trkpt>
      <trkpt lat="45.485573" lon="5.662460">
        <ele>542.772819</ele>
        <time>2026-05-04T12:41:31.531Z</time>
      </trkpt>
      <trkpt lat="45.485429" lon="5.662161">
        <ele>542.616924</ele>
        <time>2026-05-04T12:41:58.675Z</time>
      </trkpt>
      <trkpt lat="45.485009" lon="5.661760">
        <ele>541.997250</ele>
        <time>2026-05-04T12:42:53.072Z</time>
      </trkpt>
      <trkpt lat="45.484593" lon="5.661285">
        <ele>541.343897</ele>
        <time>2026-05-04T12:43:49.358Z</time>
      </trkpt>
      <trkpt lat="45.484132" lon="5.660951">
        <ele>540.709932</ele>
        <time>2026-05-04T12:44:42.402Z</time>
      </trkpt>
      <trkpt lat="45.483649" lon="5.660301">
        <ele>542.151042</ele>
        <time>2026-05-04T12:45:55.206Z</time>
      </trkpt>
      <trkpt lat="45.482941" lon="5.659726">
        <ele>544.654122</ele>
        <time>2026-05-04T12:47:29.079Z</time>
      </trkpt>
      <trkpt lat="45.482449" lon="5.659180">
        <ele>545.901306</ele>
        <time>2026-05-04T12:48:38.354Z</time>
      </trkpt>
      <trkpt lat="45.482320" lon="5.659071">
        <ele>545.751813</ele>
        <time>2026-05-04T12:48:54.338Z</time>
      </trkpt>
      <trkpt lat="45.482741" lon="5.658224">
        <ele>545.026030</ele>
        <time>2026-05-04T12:50:07.335Z</time>
      </trkpt>
      <trkpt lat="45.482828" lon="5.658105">
        <ele>544.905847</ele>
        <time>2026-05-04T12:50:19.962Z</time>
      </trkpt>
      <trkpt lat="45.483045" lon="5.657981">
        <ele>544.672774</ele>
        <time>2026-05-04T12:50:44.790Z</time>
      </trkpt>
      <trkpt lat="45.483340" lon="5.657667">
        <ele>544.305775</ele>
        <time>2026-05-04T12:51:24.726Z</time>
      </trkpt>
      <trkpt lat="45.483588" lon="5.657466">
        <ele>543.022676</ele>
        <time>2026-05-04T12:51:55.905Z</time>
      </trkpt>
      <trkpt lat="45.483692" lon="5.657303">
        <ele>542.253914</ele>
        <time>2026-05-04T12:52:12.981Z</time>
      </trkpt>
      <trkpt lat="45.484068" lon="5.656574">
        <ele>539.097091</ele>
        <time>2026-05-04T12:53:23.505Z</time>
      </trkpt>
      <trkpt lat="45.484214" lon="5.656212">
        <ele>537.640367</ele>
        <time>2026-05-04T12:53:56.170Z</time>
      </trkpt>
      <trkpt lat="45.484282" lon="5.655875">
        <ele>536.417154</ele>
        <time>2026-05-04T12:54:23.568Z</time>
      </trkpt>
      <trkpt lat="45.484293" lon="5.655615">
        <ele>535.508592</ele>
        <time>2026-05-04T12:54:43.879Z</time>
      </trkpt>
      <trkpt lat="45.484063" lon="5.653718">
        <ele>531.380134</ele>
        <time>2026-05-04T12:57:09.637Z</time>
      </trkpt>
      <trkpt lat="45.484034" lon="5.653663">
        <ele>531.235182</ele>
        <time>2026-05-04T12:57:14.583Z</time>
      </trkpt>
      <trkpt lat="45.483987" lon="5.653633">
        <ele>531.080487</ele>
        <time>2026-05-04T12:57:19.937Z</time>
      </trkpt>
      <trkpt lat="45.483654" lon="5.653592">
        <ele>530.076345</ele>
        <time>2026-05-04T12:57:54.131Z</time>
      </trkpt>
      <trkpt lat="45.481900" lon="5.653441">
        <ele>530.196905</ele>
        <time>2026-05-04T13:00:54.481Z</time>
      </trkpt>
      <trkpt lat="45.481747" lon="5.652392">
        <ele>528.158994</ele>
        <time>2026-05-04T13:02:10.961Z</time>
      </trkpt>
      <trkpt lat="45.481743" lon="5.652231">
        <ele>527.806319</ele>
        <time>2026-05-04T13:02:22.934Z</time>
      </trkpt>
      <trkpt lat="45.482029" lon="5.651842">
        <ele>526.572387</ele>
        <time>2026-05-04T13:03:05.677Z</time>
      </trkpt>
      <trkpt lat="45.482491" lon="5.651323">
        <ele>524.736179</ele>
        <time>2026-05-04T13:04:10.970Z</time>
      </trkpt>
      <trkpt lat="45.482623" lon="5.651208">
        <ele>524.290333</ele>
        <time>2026-05-04T13:04:28.203Z</time>
      </trkpt>
      <trkpt lat="45.482976" lon="5.651052">
        <ele>523.261271</ele>
        <time>2026-05-04T13:05:09.534Z</time>
      </trkpt>
      <trkpt lat="45.483099" lon="5.650970">
        <ele>522.883200</ele>
        <time>2026-05-04T13:05:24.619Z</time>
      </trkpt>
      <trkpt lat="45.483362" lon="5.650663">
        <ele>521.936856</ele>
        <time>2026-05-04T13:06:01.593Z</time>
      </trkpt>
      <trkpt lat="45.483701" lon="5.650327">
        <ele>520.787337</ele>
        <time>2026-05-04T13:06:44.916Z</time>
      </trkpt>
      <trkpt lat="45.484062" lon="5.649902">
        <ele>519.710886</ele>
        <time>2026-05-04T13:07:32.201Z</time>
      </trkpt>
      <trkpt lat="45.484139" lon="5.649784">
        <ele>520.083834</ele>
        <time>2026-05-04T13:07:44.279Z</time>
      </trkpt>
      <trkpt lat="45.484234" lon="5.649316">
        <ele>521.211046</ele>
        <time>2026-05-04T13:08:21.924Z</time>
      </trkpt>
      <trkpt lat="45.484339" lon="5.649010">
        <ele>521.999233</ele>
        <time>2026-05-04T13:08:49.117Z</time>
      </trkpt>
      <trkpt lat="45.484497" lon="5.648802">
        <ele>522.708744</ele>
        <time>2026-05-04T13:09:13.991Z</time>
      </trkpt>
      <trkpt lat="45.484732" lon="5.648610">
        <ele>523.602423</ele>
        <time>2026-05-04T13:09:45.546Z</time>
      </trkpt>
      <trkpt lat="45.484943" lon="5.648245">
        <ele>524.696894</ele>
        <time>2026-05-04T13:10:23.875Z</time>
      </trkpt>
      <trkpt lat="45.485076" lon="5.647796">
        <ele>525.874148</ele>
        <time>2026-05-04T13:11:02.508Z</time>
      </trkpt>
      <trkpt lat="45.485087" lon="5.647549">
        <ele>526.540881</ele>
        <time>2026-05-04T13:11:21.617Z</time>
      </trkpt>
      <trkpt lat="45.484869" lon="5.647787">
        <ele>527.595738</ele>
        <time>2026-05-04T13:11:52.498Z</time>
      </trkpt>
      <trkpt lat="45.484604" lon="5.647999">
        <ele>528.763205</ele>
        <time>2026-05-04T13:12:26.657Z</time>
      </trkpt>
      <trkpt lat="45.484114" lon="5.648212">
        <ele>530.731485</ele>
        <time>2026-05-04T13:13:24.317Z</time>
      </trkpt>
      <trkpt lat="45.484080" lon="5.648040">
        <ele>531.212908</ele>
        <time>2026-05-04T13:13:38.520Z</time>
      </trkpt>
      <trkpt lat="45.483959" lon="5.647990">
        <ele>531.696959</ele>
        <time>2026-05-04T13:13:52.814Z</time>
      </trkpt>
      <trkpt lat="45.483697" lon="5.647960">
        <ele>532.795420</ele>
        <time>2026-05-04T13:14:22.970Z</time>
      </trkpt>
      <trkpt lat="45.483115" lon="5.647772">
        <ele>535.832480</ele>
        <time>2026-05-04T13:15:33.343Z</time>
      </trkpt>
      <trkpt lat="45.482850" lon="5.647791">
        <ele>537.182881</ele>
        <time>2026-05-04T13:16:05.064Z</time>
      </trkpt>
      <trkpt lat="45.482696" lon="5.647920">
        <ele>538.091828</ele>
        <time>2026-05-04T13:16:26.262Z</time>
      </trkpt>
      <trkpt lat="45.482576" lon="5.648094">
        <ele>538.962744</ele>
        <time>2026-05-04T13:16:46.615Z</time>
      </trkpt>
      <trkpt lat="45.482087" lon="5.649191">
        <ele>544.174058</ele>
        <time>2026-05-04T13:18:33.921Z</time>
      </trkpt>
      <trkpt lat="45.481944" lon="5.649462">
        <ele>545.728653</ele>
        <time>2026-05-04T13:19:02.164Z</time>
      </trkpt>
      <trkpt lat="45.481797" lon="5.649628">
        <ele>546.954368</ele>
        <time>2026-05-04T13:19:24.723Z</time>
      </trkpt>
      <trkpt lat="45.481722" lon="5.649760">
        <ele>547.733110</ele>
        <time>2026-05-04T13:19:39.290Z</time>
      </trkpt>
      <trkpt lat="45.481670" lon="5.650226">
        <ele>549.895903</ele>
        <time>2026-05-04T13:20:20.338Z</time>
      </trkpt>
      <trkpt lat="45.481562" lon="5.650545">
        <ele>551.519578</ele>
        <time>2026-05-04T13:20:51.706Z</time>
      </trkpt>
      <trkpt lat="45.481397" lon="5.650739">
        <ele>552.917489</ele>
        <time>2026-05-04T13:21:19.064Z</time>
      </trkpt>
      <trkpt lat="45.481266" lon="5.650779">
        <ele>553.908327</ele>
        <time>2026-05-04T13:21:36.193Z</time>
      </trkpt>
      <trkpt lat="45.480971" lon="5.650492">
        <ele>556.843796</ele>
        <time>2026-05-04T13:22:22.093Z</time>
      </trkpt>
      <trkpt lat="45.480485" lon="5.650173">
        <ele>561.241683</ele>
        <time>2026-05-04T13:23:30.603Z</time>
      </trkpt>
      <trkpt lat="45.480353" lon="5.650124">
        <ele>562.362925</ele>
        <time>2026-05-04T13:23:47.927Z</time>
      </trkpt>
      <trkpt lat="45.479659" lon="5.650250">
        <ele>568.113910</ele>
        <time>2026-05-04T13:25:16.304Z</time>
      </trkpt>
      <trkpt lat="45.479805" lon="5.649088">
        <ele>579.437507</ele>
        <time>2026-05-04T13:27:05.831Z</time>
      </trkpt>
      <trkpt lat="45.479820" lon="5.648831">
        <ele>581.913831</ele>
        <time>2026-05-04T13:27:33.673Z</time>
      </trkpt>
      <trkpt lat="45.479757" lon="5.647999">
        <ele>589.949393</ele>
        <time>2026-05-04T13:29:16.935Z</time>
      </trkpt>
      <trkpt lat="45.479729" lon="5.646804">
        <ele>604.165866</ele>
        <time>2026-05-04T13:32:08.783Z</time>
      </trkpt>
      <trkpt lat="45.479913" lon="5.646158">
        <ele>612.974425</ele>
        <time>2026-05-04T13:33:49.714Z</time>
      </trkpt>
      <trkpt lat="45.480003" lon="5.645951">
        <ele>616.051398</ele>
        <time>2026-05-04T13:34:22.510Z</time>
      </trkpt>
      <trkpt lat="45.480223" lon="5.645725">
        <ele>620.936364</ele>
        <time>2026-05-04T13:35:10.360Z</time>
      </trkpt>
      <trkpt lat="45.480313" lon="5.645582">
        <ele>623.363889</ele>
        <time>2026-05-04T13:35:31.806Z</time>
      </trkpt>
      <trkpt lat="45.480486" lon="5.645002">
        <ele>626.306579</ele>
        <time>2026-05-04T13:36:31.940Z</time>
      </trkpt>
      <trkpt lat="45.480593" lon="5.644634">
        <ele>627.235255</ele>
        <time>2026-05-04T13:37:05.833Z</time>
      </trkpt>
      <trkpt lat="45.480892" lon="5.644044">
        <ele>628.932231</ele>
        <time>2026-05-04T13:38:01.147Z</time>
      </trkpt>
      <trkpt lat="45.481530" lon="5.642666">
        <ele>628.760936</ele>
        <time>2026-05-04T13:40:03.997Z</time>
      </trkpt>
      <trkpt lat="45.481757" lon="5.642206">
        <ele>626.839813</ele>
        <time>2026-05-04T13:40:47.665Z</time>
      </trkpt>
      <trkpt lat="45.481827" lon="5.642111">
        <ele>626.369145</ele>
        <time>2026-05-04T13:40:58.471Z</time>
      </trkpt>
      <trkpt lat="45.481945" lon="5.641861">
        <ele>625.339891</ele>
        <time>2026-05-04T13:41:22.196Z</time>
      </trkpt>
      <trkpt lat="45.482393" lon="5.640533">
        <ele>620.472471</ele>
        <time>2026-05-04T13:43:18.287Z</time>
      </trkpt>
      <trkpt lat="45.482457" lon="5.640426">
        <ele>620.030349</ele>
        <time>2026-05-04T13:43:29.311Z</time>
      </trkpt>
      <trkpt lat="45.483219" lon="5.640305">
        <ele>616.592810</ele>
        <time>2026-05-04T13:44:53.059Z</time>
      </trkpt>
      <trkpt lat="45.484142" lon="5.639986">
        <ele>612.625780</ele>
        <time>2026-05-04T13:46:33.688Z</time>
      </trkpt>
      <trkpt lat="45.484566" lon="5.639896">
        <ele>610.984841</ele>
        <time>2026-05-04T13:47:19.262Z</time>
      </trkpt>
      <trkpt lat="45.484628" lon="5.639086">
        <ele>608.798044</ele>
        <time>2026-05-04T13:48:20.912Z</time>
      </trkpt>
      <trkpt lat="45.484590" lon="5.638860">
        <ele>608.174306</ele>
        <time>2026-05-04T13:48:38.728Z</time>
      </trkpt>
      <trkpt lat="45.484357" lon="5.638391">
        <ele>605.861742</ele>
        <time>2026-05-04T13:49:23.337Z</time>
      </trkpt>
      <trkpt lat="45.484217" lon="5.637939">
        <ele>603.272410</ele>
        <time>2026-05-04T13:50:02.282Z</time>
      </trkpt>
      <trkpt lat="45.483913" lon="5.637275">
        <ele>599.116858</ele>
        <time>2026-05-04T13:51:05.322Z</time>
      </trkpt>
      <trkpt lat="45.483896" lon="5.637152">
        <ele>598.459925</ele>
        <time>2026-05-04T13:51:15.512Z</time>
      </trkpt>
      <trkpt lat="45.484017" lon="5.637011">
        <ele>597.292128</ele>
        <time>2026-05-04T13:51:33.830Z</time>
      </trkpt>
      <trkpt lat="45.484262" lon="5.636844">
        <ele>595.262647</ele>
        <time>2026-05-04T13:52:06.168Z</time>
      </trkpt>
      <trkpt lat="45.484620" lon="5.636661">
        <ele>591.718894</ele>
        <time>2026-05-04T13:52:52.243Z</time>
      </trkpt>
      <trkpt lat="45.484802" lon="5.635938">
        <ele>585.902721</ele>
        <time>2026-05-04T13:53:58.426Z</time>
      </trkpt>
      <trkpt lat="45.484734" lon="5.635378">
        <ele>581.599697</ele>
        <time>2026-05-04T13:54:47.671Z</time>
      </trkpt>
      <trkpt lat="45.484583" lon="5.634896">
        <ele>577.602593</ele>
        <time>2026-05-04T13:55:33.741Z</time>
      </trkpt>
      <trkpt lat="45.483864" lon="5.633717">
        <ele>570.837541</ele>
        <time>2026-05-04T13:57:41.422Z</time>
      </trkpt>
      <trkpt lat="45.484831" lon="5.633358">
        <ele>566.383151</ele>
        <time>2026-05-04T13:59:26.126Z</time>
      </trkpt>
      <trkpt lat="45.484962" lon="5.632778">
        <ele>567.860396</ele>
        <time>2026-05-04T14:00:13.007Z</time>
      </trkpt>
      <trkpt lat="45.485045" lon="5.632566">
        <ele>568.449047</ele>
        <time>2026-05-04T14:00:32.592Z</time>
      </trkpt>
      <trkpt lat="45.485207" lon="5.631635">
        <ele>570.774517</ele>
        <time>2026-05-04T14:01:52.110Z</time>
      </trkpt>
      <trkpt lat="45.485208" lon="5.631133">
        <ele>571.991503</ele>
        <time>2026-05-04T14:02:33.887Z</time>
      </trkpt>
      <trkpt lat="45.485184" lon="5.630776">
        <ele>572.739763</ele>
        <time>2026-05-04T14:03:03.281Z</time>
      </trkpt>
      <trkpt lat="45.483919" lon="5.630322">
        <ele>575.500322</ele>
        <time>2026-05-04T14:05:22.315Z</time>
      </trkpt>
      <trkpt lat="45.483464" lon="5.630393">
        <ele>576.624566</ele>
        <time>2026-05-04T14:06:08.288Z</time>
      </trkpt>
      <trkpt lat="45.482614" lon="5.629893">
        <ele>581.228061</ele>
        <time>2026-05-04T14:07:48.976Z</time>
      </trkpt>
      <trkpt lat="45.482469" lon="5.629408">
        <ele>583.078922</ele>
        <time>2026-05-04T14:08:35.626Z</time>
      </trkpt>
      <trkpt lat="45.482294" lon="5.629142">
        <ele>584.359399</ele>
        <time>2026-05-04T14:09:08.493Z</time>
      </trkpt>
      <trkpt lat="45.482347" lon="5.628748">
        <ele>586.130200</ele>
        <time>2026-05-04T14:09:44.710Z</time>
      </trkpt>
      <trkpt lat="45.482507" lon="5.628263">
        <ele>589.686557</ele>
        <time>2026-05-04T14:10:34.098Z</time>
      </trkpt>
      <trkpt lat="45.482090" lon="5.628376">
        <ele>593.703311</ele>
        <time>2026-05-04T14:11:32.831Z</time>
      </trkpt>
      <trkpt lat="45.481701" lon="5.628336">
        <ele>597.394057</ele>
        <time>2026-05-04T14:12:25.998Z</time>
      </trkpt>
      <trkpt lat="45.481371" lon="5.627543">
        <ele>602.817279</ele>
        <time>2026-05-04T14:13:49.170Z</time>
      </trkpt>
      <trkpt lat="45.481068" lon="5.627298">
        <ele>604.087300</ele>
        <time>2026-05-04T14:14:33.037Z</time>
      </trkpt>
      <trkpt lat="45.480872" lon="5.627025">
        <ele>605.086238</ele>
        <time>2026-05-04T14:15:07.073Z</time>
      </trkpt>
      <trkpt lat="45.480586" lon="5.626369">
        <ele>607.061137</ele>
        <time>2026-05-04T14:16:06.927Z</time>
      </trkpt>
      <trkpt lat="45.480490" lon="5.626186">
        <ele>607.645448</ele>
        <time>2026-05-04T14:16:23.065Z</time>
      </trkpt>
      <trkpt lat="45.480324" lon="5.625901">
        <ele>608.592689</ele>
        <time>2026-05-04T14:16:49.537Z</time>
      </trkpt>
      <trkpt lat="45.480172" lon="5.625720">
        <ele>608.723084</ele>
        <time>2026-05-04T14:17:10.096Z</time>
      </trkpt>
      <trkpt lat="45.479843" lon="5.625606">
        <ele>608.009590</ele>
        <time>2026-05-04T14:17:45.695Z</time>
      </trkpt>
      <trkpt lat="45.479652" lon="5.625427">
        <ele>607.527959</ele>
        <time>2026-05-04T14:18:09.961Z</time>
      </trkpt>
      <trkpt lat="45.479152" lon="5.624386">
        <ele>605.663474</ele>
        <time>2026-05-04T14:19:43.603Z</time>
      </trkpt>
      <trkpt lat="45.478956" lon="5.623820">
        <ele>605.470310</ele>
        <time>2026-05-04T14:20:29.591Z</time>
      </trkpt>
      <trkpt lat="45.478609" lon="5.623188">
        <ele>606.379553</ele>
        <time>2026-05-04T14:21:26.419Z</time>
      </trkpt>
      <trkpt lat="45.478434" lon="5.623072">
        <ele>606.691304</ele>
        <time>2026-05-04T14:21:46.213Z</time>
      </trkpt>
      <trkpt lat="45.478375" lon="5.622949">
        <ele>606.860112</ele>
        <time>2026-05-04T14:21:57.108Z</time>
      </trkpt>
      <trkpt lat="45.478361" lon="5.622902">
        <ele>606.917955</ele>
        <time>2026-05-04T14:22:00.902Z</time>
      </trkpt>
      <trkpt lat="45.478451" lon="5.622728">
        <ele>607.162875</ele>
        <time>2026-05-04T14:22:17.328Z</time>
      </trkpt>
      <trkpt lat="45.478459" lon="5.622582">
        <ele>607.328758</ele>
        <time>2026-05-04T14:22:28.855Z</time>
      </trkpt>
      <trkpt lat="45.478425" lon="5.622209">
        <ele>607.754822</ele>
        <time>2026-05-04T14:22:59.265Z</time>
      </trkpt>
      <trkpt lat="45.478313" lon="5.621473">
        <ele>610.299779</ele>
        <time>2026-05-04T14:24:03.383Z</time>
      </trkpt>
      <trkpt lat="45.478508" lon="5.621228">
        <ele>612.004258</ele>
        <time>2026-05-04T14:24:36.221Z</time>
      </trkpt>
      <trkpt lat="45.478682" lon="5.621073">
        <ele>613.349813</ele>
        <time>2026-05-04T14:25:01.750Z</time>
      </trkpt>
      <trkpt lat="45.478935" lon="5.620944">
        <ele>615.112044</ele>
        <time>2026-05-04T14:25:35.460Z</time>
      </trkpt>
      <trkpt lat="45.479069" lon="5.620750">
        <ele>616.364399</ele>
        <time>2026-05-04T14:25:59.331Z</time>
      </trkpt>
      <trkpt lat="45.479363" lon="5.620577">
        <ele>618.450361</ele>
        <time>2026-05-04T14:26:39.168Z</time>
      </trkpt>
      <trkpt lat="45.479561" lon="5.620533">
        <ele>619.764669</ele>
        <time>2026-05-04T14:27:03.754Z</time>
      </trkpt>
      <trkpt lat="45.479656" lon="5.620549">
        <ele>620.083896</ele>
        <time>2026-05-04T14:27:15.285Z</time>
      </trkpt>
      <trkpt lat="45.480120" lon="5.620824">
        <ele>621.499186</ele>
        <time>2026-05-04T14:28:14.071Z</time>
      </trkpt>
      <trkpt lat="45.480440" lon="5.621108">
        <ele>622.560782</ele>
        <time>2026-05-04T14:28:56.389Z</time>
      </trkpt>
      <trkpt lat="45.480592" lon="5.621095">
        <ele>622.989685</ele>
        <time>2026-05-04T14:29:13.142Z</time>
      </trkpt>
      <trkpt lat="45.480808" lon="5.620947">
        <ele>623.664654</ele>
        <time>2026-05-04T14:29:39.033Z</time>
      </trkpt>
      <trkpt lat="45.481096" lon="5.620695">
        <ele>624.616351</ele>
        <time>2026-05-04T14:30:14.120Z</time>
      </trkpt>
      <trkpt lat="45.482301" lon="5.618549">
        <ele>620.929228</ele>
        <time>2026-05-04T14:33:37.103Z</time>
      </trkpt>
      <trkpt lat="45.482537" lon="5.618045">
        <ele>620.380006</ele>
        <time>2026-05-04T14:34:22.484Z</time>
      </trkpt>
      <trkpt lat="45.482714" lon="5.617556">
        <ele>619.881302</ele>
        <time>2026-05-04T14:35:03.280Z</time>
      </trkpt>
      <trkpt lat="45.482742" lon="5.617372">
        <ele>619.710679</ele>
        <time>2026-05-04T14:35:17.030Z</time>
      </trkpt>
      <trkpt lat="45.482797" lon="5.616300">
        <ele>618.736631</ele>
        <time>2026-05-04T14:36:32.904Z</time>
      </trkpt>
      <trkpt lat="45.482816" lon="5.615829">
        <ele>619.069230</ele>
        <time>2026-05-04T14:37:07.756Z</time>
      </trkpt>
      <trkpt lat="45.482943" lon="5.615449">
        <ele>619.583579</ele>
        <time>2026-05-04T14:37:39.475Z</time>
      </trkpt>
      <trkpt lat="45.482948" lon="5.615052">
        <ele>620.068725</ele>
        <time>2026-05-04T14:38:09.671Z</time>
      </trkpt>
      <trkpt lat="45.482743" lon="5.614347">
        <ele>621.001263</ele>
        <time>2026-05-04T14:39:07.883Z</time>
      </trkpt>
      <trkpt lat="45.482973" lon="5.613792">
        <ele>621.804207</ele>
        <time>2026-05-04T14:39:55.339Z</time>
      </trkpt>
      <trkpt lat="45.482180" lon="5.613000">
        <ele>624.674058</ele>
        <time>2026-05-04T14:41:37.477Z</time>
      </trkpt>
      <trkpt lat="45.482073" lon="5.612691">
        <ele>625.390364</ele>
        <time>2026-05-04T14:42:04.232Z</time>
      </trkpt>
      <trkpt lat="45.482245" lon="5.612387">
        <ele>626.202288</ele>
        <time>2026-05-04T14:42:35.421Z</time>
      </trkpt>
      <trkpt lat="45.482287" lon="5.612260">
        <ele>626.494143</ele>
        <time>2026-05-04T14:42:46.889Z</time>
      </trkpt>
      <trkpt lat="45.482293" lon="5.612073">
        <ele>626.883222</ele>
        <time>2026-05-04T14:43:02.359Z</time>
      </trkpt>
      <trkpt lat="45.482232" lon="5.611851">
        <ele>627.602446</ele>
        <time>2026-05-04T14:43:22.493Z</time>
      </trkpt>
      <trkpt lat="45.481995" lon="5.611238">
        <ele>630.221311</ele>
        <time>2026-05-04T14:44:23.024Z</time>
      </trkpt>
      <trkpt lat="45.481710" lon="5.610599">
        <ele>633.054590</ele>
        <time>2026-05-04T14:45:28.187Z</time>
      </trkpt>
      <trkpt lat="45.481713" lon="5.610408">
        <ele>633.769329</ele>
        <time>2026-05-04T14:45:44.442Z</time>
      </trkpt>
      <trkpt lat="45.481559" lon="5.608409">
        <ele>639.084223</ele>
        <time>2026-05-04T14:48:22.785Z</time>
      </trkpt>
      <trkpt lat="45.481542" lon="5.607927">
        <ele>640.022148</ele>
        <time>2026-05-04T14:48:58.780Z</time>
      </trkpt>
      <trkpt lat="45.481493" lon="5.607607">
        <ele>640.658709</ele>
        <time>2026-05-04T14:49:23.525Z</time>
      </trkpt>
      <trkpt lat="45.481389" lon="5.607162">
        <ele>641.570322</ele>
        <time>2026-05-04T14:49:59.001Z</time>
      </trkpt>
      <trkpt lat="45.481194" lon="5.606754">
        <ele>642.173078</ele>
        <time>2026-05-04T14:50:36.123Z</time>
      </trkpt>
      <trkpt lat="45.480971" lon="5.606208">
        <ele>642.884244</ele>
        <time>2026-05-04T14:51:23.866Z</time>
      </trkpt>
      <trkpt lat="45.480787" lon="5.605379">
        <ele>643.862901</ele>
        <time>2026-05-04T14:52:27.649Z</time>
      </trkpt>
      <trkpt lat="45.480716" lon="5.604941">
        <ele>644.368866</ele>
        <time>2026-05-04T14:53:00.149Z</time>
      </trkpt>
      <trkpt lat="45.480736" lon="5.604696">
        <ele>644.810478</ele>
        <time>2026-05-04T14:53:17.772Z</time>
      </trkpt>
      <trkpt lat="45.480773" lon="5.604571">
        <ele>645.287431</ele>
        <time>2026-05-04T14:53:27.283Z</time>
      </trkpt>
      <trkpt lat="45.480835" lon="5.604411">
        <ele>645.930045</ele>
        <time>2026-05-04T14:53:40.311Z</time>
      </trkpt>
      <trkpt lat="45.481405" lon="5.603707">
        <ele>649.710333</ele>
        <time>2026-05-04T14:55:04.363Z</time>
      </trkpt>
      <trkpt lat="45.481561" lon="5.603549">
        <ele>650.669582</ele>
        <time>2026-05-04T14:55:27.898Z</time>
      </trkpt>
      <trkpt lat="45.481718" lon="5.603462">
        <ele>651.514026</ele>
        <time>2026-05-04T14:55:49.880Z</time>
      </trkpt>
      <trkpt lat="45.481785" lon="5.603330">
        <ele>652.086851</ele>
        <time>2026-05-04T14:56:05.380Z</time>
      </trkpt>
      <trkpt lat="45.481898" lon="5.602985">
        <ele>653.425379</ele>
        <time>2026-05-04T14:56:40.906Z</time>
      </trkpt>
      <trkpt lat="45.482051" lon="5.602663">
        <ele>654.668207</ele>
        <time>2026-05-04T14:57:16.378Z</time>
      </trkpt>
      <trkpt lat="45.482220" lon="5.602438">
        <ele>655.707625</ele>
        <time>2026-05-04T14:57:45.848Z</time>
      </trkpt>
      <trkpt lat="45.482387" lon="5.602064">
        <ele>657.105364</ele>
        <time>2026-05-04T14:58:24.656Z</time>
      </trkpt>
      <trkpt lat="45.482487" lon="5.601930">
        <ele>657.722264</ele>
        <time>2026-05-04T14:58:41.415Z</time>
      </trkpt>
      <trkpt lat="45.483138" lon="5.601452">
        <ele>661.014238</ele>
        <time>2026-05-04T15:00:02.061Z</time>
      </trkpt>
      <trkpt lat="45.482878" lon="5.599856">
        <ele>658.642509</ele>
        <time>2026-05-04T15:02:04.269Z</time>
      </trkpt>
      <trkpt lat="45.482552" lon="5.598853">
        <ele>656.298281</ele>
        <time>2026-05-04T15:03:28.413Z</time>
      </trkpt>
      <trkpt lat="45.482263" lon="5.598249">
        <ele>654.827592</ele>
        <time>2026-05-04T15:04:24.339Z</time>
      </trkpt>
      <trkpt lat="45.481163" lon="5.596507">
        <ele>649.485317</ele>
        <time>2026-05-04T15:07:16.186Z</time>
      </trkpt>
      <trkpt lat="45.480561" lon="5.595038">
        <ele>643.807329</ele>
        <time>2026-05-04T15:09:24.311Z</time>
      </trkpt>
      <trkpt lat="45.480349" lon="5.594872">
        <ele>642.656279</ele>
        <time>2026-05-04T15:09:52.338Z</time>
      </trkpt>
      <trkpt lat="45.480260" lon="5.594366">
        <ele>637.402282</ele>
        <time>2026-05-04T15:10:36.761Z</time>
      </trkpt>
      <trkpt lat="45.480133" lon="5.593832">
        <ele>631.416030</ele>
        <time>2026-05-04T15:11:27.642Z</time>
      </trkpt>
      <trkpt lat="45.480120" lon="5.593319">
        <ele>625.966394</ele>
        <time>2026-05-04T15:12:17.514Z</time>
      </trkpt>
      <trkpt lat="45.480221" lon="5.592847">
        <ele>620.727425</ele>
        <time>2026-05-04T15:13:06.293Z</time>
      </trkpt>
      <trkpt lat="45.480240" lon="5.592427">
        <ele>616.259383</ele>
        <time>2026-05-04T15:13:47.683Z</time>
      </trkpt>
      <trkpt lat="45.480396" lon="5.592164">
        <ele>612.932858</ele>
        <time>2026-05-04T15:14:20.757Z</time>
      </trkpt>
      <trkpt lat="45.480503" lon="5.592148">
        <ele>611.504040</ele>
        <time>2026-05-04T15:14:35.188Z</time>
      </trkpt>
      <trkpt lat="45.480685" lon="5.592015">
        <ele>608.788151</ele>
        <time>2026-05-04T15:15:02.014Z</time>
      </trkpt>
      <trkpt lat="45.481044" lon="5.591845">
        <ele>603.764476</ele>
        <time>2026-05-04T15:15:50.062Z</time>
      </trkpt>
      <trkpt lat="45.481628" lon="5.591248">
        <ele>594.222107</ele>
        <time>2026-05-04T15:17:16.669Z</time>
      </trkpt>
      <trkpt lat="45.481751" lon="5.591201">
        <ele>592.530978</ele>
        <time>2026-05-04T15:17:32.262Z</time>
      </trkpt>
      <trkpt lat="45.482129" lon="5.591178">
        <ele>588.541009</ele>
        <time>2026-05-04T15:18:18.092Z</time>
      </trkpt>
      <trkpt lat="45.482260" lon="5.590973">
        <ele>586.643582</ele>
        <time>2026-05-04T15:18:41.666Z</time>
      </trkpt>
      <trkpt lat="45.482495" lon="5.590437">
        <ele>582.319082</ele>
        <time>2026-05-04T15:19:35.112Z</time>
      </trkpt>
      <trkpt lat="45.482544" lon="5.590217">
        <ele>580.740012</ele>
        <time>2026-05-04T15:19:54.457Z</time>
      </trkpt>
      <trkpt lat="45.482546" lon="5.589985">
        <ele>579.152846</ele>
        <time>2026-05-04T15:20:13.983Z</time>
      </trkpt>
      <trkpt lat="45.482462" lon="5.589626">
        <ele>576.563882</ele>
        <time>2026-05-04T15:20:45.794Z</time>
      </trkpt>
      <trkpt lat="45.482302" lon="5.589297">
        <ele>573.838294</ele>
        <time>2026-05-04T15:21:18.898Z</time>
      </trkpt>
      <trkpt lat="45.482279" lon="5.589141">
        <ele>573.205370</ele>
        <time>2026-05-04T15:21:31.818Z</time>
      </trkpt>
      <trkpt lat="45.482383" lon="5.589145">
        <ele>572.616223</ele>
        <time>2026-05-04T15:21:43.739Z</time>
      </trkpt>
      <trkpt lat="45.482842" lon="5.589156">
        <ele>570.016622</ele>
        <time>2026-05-04T15:22:35.063Z</time>
      </trkpt>
      <trkpt lat="45.483304" lon="5.589165">
        <ele>567.400156</ele>
        <time>2026-05-04T15:23:25.722Z</time>
      </trkpt>
      <trkpt lat="45.483629" lon="5.589225">
        <ele>565.544387</ele>
        <time>2026-05-04T15:24:01.437Z</time>
      </trkpt>
      <trkpt lat="45.484895" lon="5.589861">
        <ele>558.965413</ele>
        <time>2026-05-04T15:26:28.500Z</time>
      </trkpt>
      <trkpt lat="45.484902" lon="5.589720">
        <ele>558.504331</ele>
        <time>2026-05-04T15:26:39.385Z</time>
      </trkpt>
      <trkpt lat="45.484629" lon="5.588492">
        <ele>554.657123</ele>
        <time>2026-05-04T15:28:18.606Z</time>
      </trkpt>
      <trkpt lat="45.484483" lon="5.587843">
        <ele>553.222289</ele>
        <time>2026-05-04T15:29:10.111Z</time>
      </trkpt>
      <trkpt lat="45.484334" lon="5.587340">
        <ele>552.072774</ele>
        <time>2026-05-04T15:29:50.738Z</time>
      </trkpt>
      <trkpt lat="45.483585" lon="5.585812">
        <ele>547.835424</ele>
        <time>2026-05-04T15:32:06.437Z</time>
      </trkpt>
      <trkpt lat="45.483537" lon="5.585595">
        <ele>547.271103</ele>
        <time>2026-05-04T15:32:23.085Z</time>
      </trkpt>
      <trkpt lat="45.484240" lon="5.582829">
        <ele>537.194896</ele>
        <time>2026-05-04T15:36:09.365Z</time>
      </trkpt>
      <trkpt lat="45.484253" lon="5.582284">
        <ele>534.788253</ele>
        <time>2026-05-04T15:36:53.541Z</time>
      </trkpt>
      <trkpt lat="45.484186" lon="5.581242">
        <ele>529.649477</ele>
        <time>2026-05-04T15:38:19.542Z</time>
      </trkpt>
      <trkpt lat="45.484339" lon="5.580790">
        <ele>526.870971</ele>
        <time>2026-05-04T15:39:00.960Z</time>
      </trkpt>
      <trkpt lat="45.484595" lon="5.580285">
        <ele>523.421242</ele>
        <time>2026-05-04T15:39:52.030Z</time>
      </trkpt>
      <trkpt lat="45.484972" lon="5.580047">
        <ele>520.166030</ele>
        <time>2026-05-04T15:40:39.541Z</time>
      </trkpt>
      <trkpt lat="45.485108" lon="5.579815">
        <ele>518.491985</ele>
        <time>2026-05-04T15:41:03.692Z</time>
      </trkpt>
      <trkpt lat="45.485283" lon="5.579109">
        <ele>515.834999</ele>
        <time>2026-05-04T15:42:02.739Z</time>
      </trkpt>
      <trkpt lat="45.485355" lon="5.578443">
        <ele>513.617482</ele>
        <time>2026-05-04T15:42:55.132Z</time>
      </trkpt>
      <trkpt lat="45.485274" lon="5.578231">
        <ele>512.822981</ele>
        <time>2026-05-04T15:43:13.690Z</time>
      </trkpt>
      <trkpt lat="45.485240" lon="5.578019">
        <ele>512.107329</ele>
        <time>2026-05-04T15:43:30.253Z</time>
      </trkpt>
      <trkpt lat="45.485265" lon="5.577810">
        <ele>511.409631</ele>
        <time>2026-05-04T15:43:46.296Z</time>
      </trkpt>
      <trkpt lat="45.485386" lon="5.577541">
        <ele>510.357902</ele>
        <time>2026-05-04T15:44:10.225Z</time>
      </trkpt>
      <trkpt lat="45.485725" lon="5.577219">
        <ele>509.595191</ele>
        <time>2026-05-04T15:44:52.933Z</time>
      </trkpt>
      <trkpt lat="45.486164" lon="5.576876">
        <ele>509.638775</ele>
        <time>2026-05-04T15:45:44.104Z</time>
      </trkpt>
      <trkpt lat="45.486653" lon="5.576428">
        <ele>509.689380</ele>
        <time>2026-05-04T15:46:43.711Z</time>
      </trkpt>
      <trkpt lat="45.486905" lon="5.576035">
        <ele>509.721892</ele>
        <time>2026-05-04T15:47:23.370Z</time>
      </trkpt>
      <trkpt lat="45.488052" lon="5.574036">
        <ele>514.553806</ele>
        <time>2026-05-04T15:50:42.792Z</time>
      </trkpt>
      <trkpt lat="45.488360" lon="5.573081">
        <ele>517.181363</ele>
        <time>2026-05-04T15:52:05.481Z</time>
      </trkpt>
      <trkpt lat="45.488687" lon="5.572314">
        <ele>519.490805</ele>
        <time>2026-05-04T15:53:16.800Z</time>
      </trkpt>
      <trkpt lat="45.488821" lon="5.571829">
        <ele>520.831930</ele>
        <time>2026-05-04T15:53:58.447Z</time>
      </trkpt>
      <trkpt lat="45.489070" lon="5.571101">
        <ele>523.232608</ele>
        <time>2026-05-04T15:55:03.217Z</time>
      </trkpt>
      <trkpt lat="45.489647" lon="5.569614">
        <ele>528.525367</ele>
        <time>2026-05-04T15:57:21.684Z</time>
      </trkpt>
      <trkpt lat="45.489768" lon="5.569177">
        <ele>529.732877</ele>
        <time>2026-05-04T15:58:00.681Z</time>
      </trkpt>
      <trkpt lat="45.490002" lon="5.567981">
        <ele>531.917802</ele>
        <time>2026-05-04T15:59:38.926Z</time>
      </trkpt>
      <trkpt lat="45.490044" lon="5.567872">
        <ele>532.136662</ele>
        <time>2026-05-04T15:59:48.397Z</time>
      </trkpt>
      <trkpt lat="45.489983" lon="5.567710">
        <ele>532.460237</ele>
        <time>2026-05-04T16:00:02.103Z</time>
      </trkpt>
      <trkpt lat="45.489473" lon="5.567088">
        <ele>533.960045</ele>
        <time>2026-05-04T16:01:10.797Z</time>
      </trkpt>
      <trkpt lat="45.489039" lon="5.566627">
        <ele>534.224852</ele>
        <time>2026-05-04T16:02:06.220Z</time>
      </trkpt>
      <trkpt lat="45.488165" lon="5.565943">
        <ele>534.712711</ele>
        <time>2026-05-04T16:03:46.537Z</time>
      </trkpt>
      <trkpt lat="45.487475" lon="5.565468">
        <ele>539.486008</ele>
        <time>2026-05-04T16:05:13.240Z</time>
      </trkpt>
      <trkpt lat="45.487138" lon="5.565168">
        <ele>542.608134</ele>
        <time>2026-05-04T16:06:03.560Z</time>
      </trkpt>
      <trkpt lat="45.487562" lon="5.563984">
        <ele>550.065266</ele>
        <time>2026-05-04T16:08:16.637Z</time>
      </trkpt>
      <trkpt lat="45.487569" lon="5.563894">
        <ele>550.629678</ele>
        <time>2026-05-04T16:08:25.756Z</time>
      </trkpt>
      <trkpt lat="45.487541" lon="5.563752">
        <ele>551.549108</ele>
        <time>2026-05-04T16:08:40.568Z</time>
      </trkpt>
      <trkpt lat="45.487452" lon="5.563562">
        <ele>552.973405</ele>
        <time>2026-05-04T16:09:03.213Z</time>
      </trkpt>
      <trkpt lat="45.487413" lon="5.563523">
        <ele>553.396868</ele>
        <time>2026-05-04T16:09:09.686Z</time>
      </trkpt>
      <trkpt lat="45.487198" lon="5.563355">
        <ele>555.576414</ele>
        <time>2026-05-04T16:09:43.158Z</time>
      </trkpt>
      <trkpt lat="45.486742" lon="5.563126">
        <ele>559.874541</ele>
        <time>2026-05-04T16:10:47.063Z</time>
      </trkpt>
      <trkpt lat="45.486565" lon="5.563001">
        <ele>561.630527</ele>
        <time>2026-05-04T16:11:11.740Z</time>
      </trkpt>
      <trkpt lat="45.486373" lon="5.562808">
        <ele>563.718862</ele>
        <time>2026-05-04T16:11:39.473Z</time>
      </trkpt>
      <trkpt lat="45.486250" lon="5.562595">
        <ele>565.128713</ele>
        <time>2026-05-04T16:12:01.539Z</time>
      </trkpt>
      <trkpt lat="45.486049" lon="5.562460">
        <ele>565.915682</ele>
        <time>2026-05-04T16:12:26.605Z</time>
      </trkpt>
      <trkpt lat="45.485497" lon="5.562289">
        <ele>567.916569</ele>
        <time>2026-05-04T16:13:30.607Z</time>
      </trkpt>
      <trkpt lat="45.484594" lon="5.561930">
        <ele>571.237118</ele>
        <time>2026-05-04T16:15:13.204Z</time>
      </trkpt>
      <trkpt lat="45.484271" lon="5.561874">
        <ele>572.480200</ele>
        <time>2026-05-04T16:15:49.128Z</time>
      </trkpt>
      <trkpt lat="45.483904" lon="5.561852">
        <ele>573.888886</ele>
        <time>2026-05-04T16:16:31.094Z</time>
      </trkpt>
      <trkpt lat="45.483714" lon="5.561803">
        <ele>574.629350</ele>
        <time>2026-05-04T16:16:53.123Z</time>
      </trkpt>
      <trkpt lat="45.483227" lon="5.561468">
        <ele>576.702855</ele>
        <time>2026-05-04T16:17:53.510Z</time>
      </trkpt>
      <trkpt lat="45.482913" lon="5.561146">
        <ele>578.185982</ele>
        <time>2026-05-04T16:18:38.464Z</time>
      </trkpt>
      <trkpt lat="45.482844" lon="5.561238">
        <ele>578.792620</ele>
        <time>2026-05-04T16:18:49.508Z</time>
      </trkpt>
      <trkpt lat="45.482765" lon="5.561239">
        <ele>579.303620</ele>
        <time>2026-05-04T16:18:58.925Z</time>
      </trkpt>
      <trkpt lat="45.482689" lon="5.561219">
        <ele>579.803493</ele>
        <time>2026-05-04T16:19:08.068Z</time>
      </trkpt>
      <trkpt lat="45.482590" lon="5.561143">
        <ele>580.530698</ele>
        <time>2026-05-04T16:19:21.579Z</time>
      </trkpt>
      <trkpt lat="45.482689" lon="5.561219">
        <ele>581.257902</ele>
        <time>2026-05-04T16:19:35.103Z</time>
      </trkpt>
      <trkpt lat="45.482765" lon="5.561239">
        <ele>581.757776</ele>
        <time>2026-05-04T16:19:44.320Z</time>
      </trkpt>
      <trkpt lat="45.482844" lon="5.561238">
        <ele>582.268776</ele>
        <time>2026-05-04T16:19:53.894Z</time>
      </trkpt>
      <trkpt lat="45.482913" lon="5.561146">
        <ele>582.879718</ele>
        <time>2026-05-04T16:20:05.384Z</time>
      </trkpt>
      <trkpt lat="45.482394" lon="5.560678">
        <ele>586.851303</ele>
        <time>2026-05-04T16:21:19.676Z</time>
      </trkpt>
      <trkpt lat="45.481931" lon="5.560214">
        <ele>590.666297</ele>
        <time>2026-05-04T16:22:32.439Z</time>
      </trkpt>
      <trkpt lat="45.481381" lon="5.559811">
        <ele>595.569772</ele>
        <time>2026-05-04T16:23:53.811Z</time>
      </trkpt>
      <trkpt lat="45.481269" lon="5.559653">
        <ele>596.819018</ele>
        <time>2026-05-04T16:24:14.212Z</time>
      </trkpt>
      <trkpt lat="45.481228" lon="5.559550">
        <ele>597.477571</ele>
        <time>2026-05-04T16:24:24.911Z</time>
      </trkpt>
      <trkpt lat="45.481198" lon="5.559376">
        <ele>598.473858</ele>
        <time>2026-05-04T16:24:40.884Z</time>
      </trkpt>
      <trkpt lat="45.481190" lon="5.559278">
        <ele>599.022433</ele>
        <time>2026-05-04T16:24:49.581Z</time>
      </trkpt>
      <trkpt lat="45.481224" lon="5.558785">
        <ele>601.776813</ele>
        <time>2026-05-04T16:25:32.984Z</time>
      </trkpt>
      <trkpt lat="45.481257" lon="5.558701">
        <ele>602.312184</ele>
        <time>2026-05-04T16:25:41.479Z</time>
      </trkpt>
      <trkpt lat="45.481484" lon="5.558957">
        <ele>604.435740</ele>
        <time>2026-05-04T16:26:17.070Z</time>
      </trkpt>
      <trkpt lat="45.481669" lon="5.559093">
        <ele>605.539839</ele>
        <time>2026-05-04T16:26:42.543Z</time>
      </trkpt>
      <trkpt lat="45.481988" lon="5.559139">
        <ele>607.240725</ele>
        <time>2026-05-04T16:27:20.766Z</time>
      </trkpt>
      <trkpt lat="45.482433" lon="5.559085">
        <ele>609.609929</ele>
        <time>2026-05-04T16:28:12.768Z</time>
      </trkpt>
      <trkpt lat="45.482953" lon="5.559013">
        <ele>612.381438</ele>
        <time>2026-05-04T16:29:14.418Z</time>
      </trkpt>
      <trkpt lat="45.483172" lon="5.558942">
        <ele>613.572843</ele>
        <time>2026-05-04T16:29:40.942Z</time>
      </trkpt>
      <trkpt lat="45.483369" lon="5.558786">
        <ele>613.976385</ele>
        <time>2026-05-04T16:30:07.082Z</time>
      </trkpt>
      <trkpt lat="45.483782" lon="5.558251">
        <ele>614.875100</ele>
        <time>2026-05-04T16:31:09.475Z</time>
      </trkpt>
      <trkpt lat="45.483819" lon="5.558226">
        <ele>614.941051</ele>
        <time>2026-05-04T16:31:13.813Z</time>
      </trkpt>
      <trkpt lat="45.484076" lon="5.556975">
        <ele>616.413316</ele>
        <time>2026-05-04T16:32:46.785Z</time>
      </trkpt>
      <trkpt lat="45.484435" lon="5.556170">
        <ele>614.825836</ele>
        <time>2026-05-04T16:33:57.236Z</time>
      </trkpt>
      <trkpt lat="45.484983" lon="5.554511">
        <ele>611.073537</ele>
        <time>2026-05-04T16:36:14.972Z</time>
      </trkpt>
      <trkpt lat="45.485078" lon="5.554370">
        <ele>610.540241</ele>
        <time>2026-05-04T16:36:29.670Z</time>
      </trkpt>
      <trkpt lat="45.486270" lon="5.553259">
        <ele>605.001534</ele>
        <time>2026-05-04T16:39:03.750Z</time>
      </trkpt>
      <trkpt lat="45.486367" lon="5.553135">
        <ele>604.494873</ele>
        <time>2026-05-04T16:39:17.841Z</time>
      </trkpt>
      <trkpt lat="45.486372" lon="5.553062">
        <ele>604.356156</ele>
        <time>2026-05-04T16:39:23.467Z</time>
      </trkpt>
      <trkpt lat="45.486440" lon="5.552991">
        <ele>604.209109</ele>
        <time>2026-05-04T16:39:32.627Z</time>
      </trkpt>
      <trkpt lat="45.486742" lon="5.552296">
        <ele>603.208836</ele>
        <time>2026-05-04T16:40:34.564Z</time>
      </trkpt>
      <trkpt lat="45.487053" lon="5.552077">
        <ele>602.603638</ele>
        <time>2026-05-04T16:41:11.341Z</time>
      </trkpt>
      <trkpt lat="45.487247" lon="5.551984">
        <ele>602.246518</ele>
        <time>2026-05-04T16:41:32.763Z</time>
      </trkpt>
      <trkpt lat="45.487610" lon="5.551541">
        <ele>601.412921</ele>
        <time>2026-05-04T16:42:20.897Z</time>
      </trkpt>
      <trkpt lat="45.487704" lon="5.551454">
        <ele>601.417927</ele>
        <time>2026-05-04T16:42:32.947Z</time>
      </trkpt>
      <trkpt lat="45.487975" lon="5.551296">
        <ele>602.949885</ele>
        <time>2026-05-04T16:43:06.157Z</time>
      </trkpt>
      <trkpt lat="45.488067" lon="5.551194">
        <ele>603.559616</ele>
        <time>2026-05-04T16:43:19.917Z</time>
      </trkpt>
      <trkpt lat="45.488116" lon="5.550912">
        <ele>604.625423</ele>
        <time>2026-05-04T16:43:44.470Z</time>
      </trkpt>
      <trkpt lat="45.488076" lon="5.550536">
        <ele>606.020555</ele>
        <time>2026-05-04T16:44:17.202Z</time>
      </trkpt>
      <trkpt lat="45.488154" lon="5.550248">
        <ele>607.153170</ele>
        <time>2026-05-04T16:44:44.172Z</time>
      </trkpt>
      <trkpt lat="45.488311" lon="5.549883">
        <ele>608.724096</ele>
        <time>2026-05-04T16:45:21.532Z</time>
      </trkpt>
      <trkpt lat="45.488411" lon="5.549284">
        <ele>610.851641</ele>
        <time>2026-05-04T16:46:14.342Z</time>
      </trkpt>
      <trkpt lat="45.488417" lon="5.549042">
        <ele>611.355715</ele>
        <time>2026-05-04T16:46:34.676Z</time>
      </trkpt>
      <trkpt lat="45.488383" lon="5.548525">
        <ele>612.436652</ele>
        <time>2026-05-04T16:47:16.620Z</time>
      </trkpt>
      <trkpt lat="45.488436" lon="5.548305">
        <ele>612.920901</ele>
        <time>2026-05-04T16:47:34.429Z</time>
      </trkpt>
      <trkpt lat="45.488462" lon="5.547959">
        <ele>613.645276</ele>
        <time>2026-05-04T16:48:00.316Z</time>
      </trkpt>
      <trkpt lat="45.488452" lon="5.547455">
        <ele>614.694847</ele>
        <time>2026-05-04T16:48:36.931Z</time>
      </trkpt>
      <trkpt lat="45.488493" lon="5.547019">
        <ele>615.610573</ele>
        <time>2026-05-04T16:49:08.885Z</time>
      </trkpt>
      <trkpt lat="45.488468" lon="5.546151">
        <ele>617.648833</ele>
        <time>2026-05-04T16:50:14.189Z</time>
      </trkpt>
      <trkpt lat="45.488756" lon="5.545781">
        <ele>618.988833</ele>
        <time>2026-05-04T16:50:57.544Z</time>
      </trkpt>
      <trkpt lat="45.488910" lon="5.545795">
        <ele>619.522331</ele>
        <time>2026-05-04T16:51:15.272Z</time>
      </trkpt>
      <trkpt lat="45.489120" lon="5.545966">
        <ele>620.358322</ele>
        <time>2026-05-04T16:51:43.083Z</time>
      </trkpt>
      <trkpt lat="45.489216" lon="5.546008">
        <ele>620.705478</ele>
        <time>2026-05-04T16:51:54.713Z</time>
      </trkpt>
      <trkpt lat="45.489326" lon="5.546041">
        <ele>621.094096</ele>
        <time>2026-05-04T16:52:07.797Z</time>
      </trkpt>
      <trkpt lat="45.489454" lon="5.546013">
        <ele>621.541798</ele>
        <time>2026-05-04T16:52:22.905Z</time>
      </trkpt>
      <trkpt lat="45.489812" lon="5.545843">
        <ele>622.899764</ele>
        <time>2026-05-04T16:53:06.904Z</time>
      </trkpt>
      <trkpt lat="45.490076" lon="5.545656">
        <ele>624.008501</ele>
        <time>2026-05-04T16:53:40.858Z</time>
      </trkpt>
      <trkpt lat="45.490102" lon="5.545637">
        <ele>624.118388</ele>
        <time>2026-05-04T16:53:44.222Z</time>
      </trkpt>
      <trkpt lat="45.490445" lon="5.545495">
        <ele>625.461832</ele>
        <time>2026-05-04T16:54:24.551Z</time>
      </trkpt>
      <trkpt lat="45.490795" lon="5.545414">
        <ele>626.795582</ele>
        <time>2026-05-04T16:55:03.459Z</time>
      </trkpt>
      <trkpt lat="45.491230" lon="5.545229">
        <ele>628.503021</ele>
        <time>2026-05-04T16:55:52.715Z</time>
      </trkpt>
      <trkpt lat="45.491912" lon="5.544685">
        <ele>632.677644</ele>
        <time>2026-05-04T16:57:24.200Z</time>
      </trkpt>
      <trkpt lat="45.491976" lon="5.544770">
        <ele>633.173244</ele>
        <time>2026-05-04T16:57:35.004Z</time>
      </trkpt>
      <trkpt lat="45.492032" lon="5.545038">
        <ele>634.284321</ele>
        <time>2026-05-04T16:57:59.411Z</time>
      </trkpt>
      <trkpt lat="45.492044" lon="5.545306">
        <ele>635.351270</ele>
        <time>2026-05-04T16:58:23.197Z</time>
      </trkpt>
      <trkpt lat="45.491948" lon="5.545949">
        <ele>637.963244</ele>
        <time>2026-05-04T16:59:20.722Z</time>
      </trkpt>
      <trkpt lat="45.491969" lon="5.546285">
        <ele>639.190120</ele>
        <time>2026-05-04T16:59:49.541Z</time>
      </trkpt>
      <trkpt lat="45.492040" lon="5.546784">
        <ele>639.034773</ele>
        <time>2026-05-04T17:00:31.285Z</time>
      </trkpt>
      <trkpt lat="45.492109" lon="5.546933">
        <ele>638.980290</ele>
        <time>2026-05-04T17:00:45.027Z</time>
      </trkpt>
      <trkpt lat="45.492161" lon="5.547549">
        <ele>638.790993</ele>
        <time>2026-05-04T17:01:29.292Z</time>
      </trkpt>
      <trkpt lat="45.492387" lon="5.548032">
        <ele>638.613820</ele>
        <time>2026-05-04T17:02:12.438Z</time>
      </trkpt>
      <trkpt lat="45.492751" lon="5.549827">
        <ele>635.132639</ele>
        <time>2026-05-04T17:04:38.426Z</time>
      </trkpt>
      <trkpt lat="45.492795" lon="5.550669">
        <ele>632.857379</ele>
        <time>2026-05-04T17:05:42.315Z</time>
      </trkpt>
      <trkpt lat="45.492753" lon="5.551373">
        <ele>631.451776</ele>
        <time>2026-05-04T17:06:33.099Z</time>
      </trkpt>
      <trkpt lat="45.493085" lon="5.551734">
        <ele>631.307062</ele>
        <time>2026-05-04T17:07:14.901Z</time>
      </trkpt>
      <trkpt lat="45.493222" lon="5.551922">
        <ele>631.241163</ele>
        <time>2026-05-04T17:07:34.115Z</time>
      </trkpt>
      <trkpt lat="45.493346" lon="5.552115">
        <ele>631.177543</ele>
        <time>2026-05-04T17:07:52.759Z</time>
      </trkpt>
      <trkpt lat="45.493507" lon="5.552468">
        <ele>631.075203</ele>
        <time>2026-05-04T17:08:22.766Z</time>
      </trkpt>
      <trkpt lat="45.493558" lon="5.552356">
        <ele>631.042748</ele>
        <time>2026-05-04T17:08:32.391Z</time>
      </trkpt>
      <trkpt lat="45.493814" lon="5.552041">
        <ele>630.925551</ele>
        <time>2026-05-04T17:09:06.345Z</time>
      </trkpt>
      <trkpt lat="45.494182" lon="5.551577">
        <ele>630.640721</ele>
        <time>2026-05-04T17:09:56.528Z</time>
      </trkpt>
      <trkpt lat="45.494287" lon="5.551444">
        <ele>630.546464</ele>
        <time>2026-05-04T17:10:11.049Z</time>
      </trkpt>
      <trkpt lat="45.494645" lon="5.550894">
        <ele>630.193297</ele>
        <time>2026-05-04T17:11:05.348Z</time>
      </trkpt>
      <trkpt lat="45.494788" lon="5.550633">
        <ele>630.037423</ele>
        <time>2026-05-04T17:11:28.927Z</time>
      </trkpt>
      <trkpt lat="45.494927" lon="5.550333">
        <ele>629.868211</ele>
        <time>2026-05-04T17:11:54.277Z</time>
      </trkpt>
      <trkpt lat="45.495151" lon="5.549953">
        <ele>629.591092</ele>
        <time>2026-05-04T17:12:29.701Z</time>
      </trkpt>
      <trkpt lat="45.495386" lon="5.549688">
        <ele>629.145002</ele>
        <time>2026-05-04T17:13:00.421Z</time>
      </trkpt>
      <trkpt lat="45.495477" lon="5.549581">
        <ele>628.969387</ele>
        <time>2026-05-04T17:13:12.442Z</time>
      </trkpt>
      <trkpt lat="45.495571" lon="5.549398">
        <ele>628.732558</ele>
        <time>2026-05-04T17:13:28.282Z</time>
      </trkpt>
      <trkpt lat="45.495745" lon="5.548492">
        <ele>627.751955</ele>
        <time>2026-05-04T17:14:36.785Z</time>
      </trkpt>
      <trkpt lat="45.495994" lon="5.548320">
        <ele>627.339964</ele>
        <time>2026-05-04T17:15:06.330Z</time>
      </trkpt>
      <trkpt lat="45.496203" lon="5.548257">
        <ele>627.021850</ele>
        <time>2026-05-04T17:15:29.159Z</time>
      </trkpt>
      <trkpt lat="45.496285" lon="5.548291">
        <ele>626.817673</ele>
        <time>2026-05-04T17:15:38.197Z</time>
      </trkpt>
      <trkpt lat="45.496766" lon="5.548649">
        <ele>625.368762</ele>
        <time>2026-05-04T17:16:36.089Z</time>
      </trkpt>
      <trkpt lat="45.496877" lon="5.548101">
        <ele>624.300925</ele>
        <time>2026-05-04T17:17:18.639Z</time>
      </trkpt>
      <trkpt lat="45.497226" lon="5.547034">
        <ele>621.967301</ele>
        <time>2026-05-04T17:18:44.217Z</time>
      </trkpt>
      <trkpt lat="45.497301" lon="5.546658">
        <ele>620.199308</ele>
        <time>2026-05-04T17:19:12.962Z</time>
      </trkpt>
      <trkpt lat="45.497384" lon="5.546658">
        <ele>619.663784</ele>
        <time>2026-05-04T17:19:21.815Z</time>
      </trkpt>
      <trkpt lat="45.497541" lon="5.546433">
        <ele>618.227965</ele>
        <time>2026-05-04T17:19:46.027Z</time>
      </trkpt>
      <trkpt lat="45.497579" lon="5.546304">
        <ele>617.595133</ele>
        <time>2026-05-04T17:19:56.785Z</time>
      </trkpt>
      <trkpt lat="45.497579" lon="5.546154">
        <ele>616.916754</ele>
        <time>2026-05-04T17:20:08.476Z</time>
      </trkpt>
      <trkpt lat="45.497493" lon="5.545754">
        <ele>615.024554</ele>
        <time>2026-05-04T17:20:41.682Z</time>
      </trkpt>
      <trkpt lat="45.497387" lon="5.544928">
        <ele>611.226846</ele>
        <time>2026-05-04T17:21:51.165Z</time>
      </trkpt>
      <trkpt lat="45.497402" lon="5.544736">
        <ele>610.118174</ele>
        <time>2026-05-04T17:22:07.668Z</time>
      </trkpt>
      <trkpt lat="45.497378" lon="5.544335">
        <ele>606.438423</ele>
        <time>2026-05-04T17:22:42.303Z</time>
      </trkpt>
      <trkpt lat="45.497408" lon="5.543942">
        <ele>602.823913</ele>
        <time>2026-05-04T17:23:16.679Z</time>
      </trkpt>
      <trkpt lat="45.497413" lon="5.543453">
        <ele>598.352430</ele>
        <time>2026-05-04T17:23:59.975Z</time>
      </trkpt>
      <trkpt lat="45.497375" lon="5.542914">
        <ele>593.399399</ele>
        <time>2026-05-04T17:24:48.598Z</time>
      </trkpt>
      <trkpt lat="45.497517" lon="5.542783">
        <ele>591.193611</ele>
        <time>2026-05-04T17:25:10.326Z</time>
      </trkpt>
      <trkpt lat="45.497955" lon="5.542141">
        <ele>584.284107</ele>
        <time>2026-05-04T17:26:31.303Z</time>
      </trkpt>
      <trkpt lat="45.498355" lon="5.541154">
        <ele>577.103903</ele>
        <time>2026-05-04T17:28:09.246Z</time>
      </trkpt>
      <trkpt lat="45.498389" lon="5.540977">
        <ele>575.948083</ele>
        <time>2026-05-04T17:28:24.045Z</time>
      </trkpt>
      <trkpt lat="45.498380" lon="5.540615">
        <ele>573.666832</ele>
        <time>2026-05-04T17:28:52.418Z</time>
      </trkpt>
      <trkpt lat="45.498871" lon="5.539846">
        <ele>571.866535</ele>
        <time>2026-05-04T17:30:07.245Z</time>
      </trkpt>
      <trkpt lat="45.499018" lon="5.540060">
        <ele>572.311138</ele>
        <time>2026-05-04T17:30:30.368Z</time>
      </trkpt>
      <trkpt lat="45.499091" lon="5.540180">
        <ele>572.546906</ele>
        <time>2026-05-04T17:30:43.025Z</time>
      </trkpt>
      <trkpt lat="45.499359" lon="5.540576">
        <ele>573.363695</ele>
        <time>2026-05-04T17:31:27.908Z</time>
      </trkpt>
      <trkpt lat="45.499675" lon="5.541011">
        <ele>574.293276</ele>
        <time>2026-05-04T17:32:19.278Z</time>
      </trkpt>
      <trkpt lat="45.500051" lon="5.541480">
        <ele>574.413704</ele>
        <time>2026-05-04T17:33:14.617Z</time>
      </trkpt>
      <trkpt lat="45.500290" lon="5.541662">
        <ele>574.064465</ele>
        <time>2026-05-04T17:33:42.956Z</time>
      </trkpt>
      <trkpt lat="45.500454" lon="5.541761">
        <ele>573.834904</ele>
        <time>2026-05-04T17:34:00.829Z</time>
      </trkpt>
      <trkpt lat="45.500982" lon="5.540520">
        <ele>572.523188</ele>
        <time>2026-05-04T17:35:49.335Z</time>
      </trkpt>
      <trkpt lat="45.501214" lon="5.539694">
        <ele>570.603520</ele>
        <time>2026-05-04T17:36:58.846Z</time>
      </trkpt>
      <trkpt lat="45.501393" lon="5.539135">
        <ele>569.200103</ele>
        <time>2026-05-04T17:37:45.779Z</time>
      </trkpt>
      <trkpt lat="45.501697" lon="5.538703">
        <ele>567.802193</ele>
        <time>2026-05-04T17:38:31.613Z</time>
      </trkpt>
      <trkpt lat="45.502506" lon="5.537554">
        <ele>567.027780</ele>
        <time>2026-05-04T17:40:26.611Z</time>
      </trkpt>
      <trkpt lat="45.501577" lon="5.536406">
        <ele>567.323212</ele>
        <time>2026-05-04T17:42:36.743Z</time>
      </trkpt>
      <trkpt lat="45.501324" lon="5.535838">
        <ele>566.635779</ele>
        <time>2026-05-04T17:43:25.053Z</time>
      </trkpt>
      <trkpt lat="45.500996" lon="5.535272">
        <ele>565.885612</ele>
        <time>2026-05-04T17:44:17.814Z</time>
      </trkpt>
      <trkpt lat="45.500814" lon="5.534875">
        <ele>565.401050</ele>
        <time>2026-05-04T17:44:52.909Z</time>
      </trkpt>
      <trkpt lat="45.500059" lon="5.532673">
        <ele>556.866554</ele>
        <time>2026-05-04T17:48:04.276Z</time>
      </trkpt>
      <trkpt lat="45.499569" lon="5.531832">
        <ele>552.280855</ele>
        <time>2026-05-04T17:49:31.431Z</time>
      </trkpt>
      <trkpt lat="45.498783" lon="5.530608">
        <ele>544.977381</ele>
        <time>2026-05-04T17:51:42.819Z</time>
      </trkpt>
      <trkpt lat="45.499615" lon="5.529999">
        <ele>539.969152</ele>
        <time>2026-05-04T17:53:27.036Z</time>
      </trkpt>
      <trkpt lat="45.499980" lon="5.529859">
        <ele>538.057876</ele>
        <time>2026-05-04T17:54:08.766Z</time>
      </trkpt>
      <trkpt lat="45.500517" lon="5.529688">
        <ele>535.275549</ele>
        <time>2026-05-04T17:55:09.105Z</time>
      </trkpt>
      <trkpt lat="45.501031" lon="5.529572">
        <ele>532.719577</ele>
        <time>2026-05-04T17:56:05.280Z</time>
      </trkpt>
      <trkpt lat="45.501437" lon="5.529551">
        <ele>530.751394</ele>
        <time>2026-05-04T17:56:49.078Z</time>
      </trkpt>
      <trkpt lat="45.501700" lon="5.529470">
        <ele>529.447928</ele>
        <time>2026-05-04T17:57:18.406Z</time>
      </trkpt>
      <trkpt lat="45.502042" lon="5.528850">
        <ele>526.768940</ele>
        <time>2026-05-04T17:58:19.321Z</time>
      </trkpt>
      <trkpt lat="45.502187" lon="5.528174">
        <ele>522.893257</ele>
        <time>2026-05-04T17:59:15.111Z</time>
      </trkpt>
      <trkpt lat="45.502595" lon="5.528025">
        <ele>518.642507</ele>
        <time>2026-05-04T18:00:04.336Z</time>
      </trkpt>
      <trkpt lat="45.502950" lon="5.528027">
        <ele>515.059420</ele>
        <time>2026-05-04T18:00:47.442Z</time>
      </trkpt>
      <trkpt lat="45.503138" lon="5.528070">
        <ele>513.137686</ele>
        <time>2026-05-04T18:01:10.901Z</time>
      </trkpt>
      <trkpt lat="45.503237" lon="5.528009">
        <ele>512.049274</ele>
        <time>2026-05-04T18:01:24.331Z</time>
      </trkpt>
      <trkpt lat="45.503479" lon="5.527543">
        <ele>507.946517</ele>
        <time>2026-05-04T18:02:15.029Z</time>
      </trkpt>
      <trkpt lat="45.503871" lon="5.527107">
        <ele>502.076890</ele>
        <time>2026-05-04T18:03:17.867Z</time>
      </trkpt>
      <trkpt lat="45.504081" lon="5.526520">
        <ele>496.558959</ele>
        <time>2026-05-04T18:04:16.065Z</time>
      </trkpt>
      <trkpt lat="45.504201" lon="5.526037">
        <ele>492.268465</ele>
        <time>2026-05-04T18:05:00.177Z</time>
      </trkpt>
      <trkpt lat="45.504621" lon="5.525593">
        <ele>486.027875</ele>
        <time>2026-05-04T18:06:03.012Z</time>
      </trkpt>
      <trkpt lat="45.504942" lon="5.525554">
        <ele>482.404566</ele>
        <time>2026-05-04T18:06:41.378Z</time>
      </trkpt>
      <trkpt lat="45.505481" lon="5.525371">
        <ele>476.173250</ele>
        <time>2026-05-04T18:07:47.804Z</time>
      </trkpt>
      <trkpt lat="45.505856" lon="5.525110">
        <ele>471.480673</ele>
        <time>2026-05-04T18:08:38.980Z</time>
      </trkpt>
      <trkpt lat="45.505903" lon="5.525028">
        <ele>470.645701</ele>
        <time>2026-05-04T18:08:48.208Z</time>
      </trkpt>
      <trkpt lat="45.506094" lon="5.524692">
        <ele>467.235617</ele>
        <time>2026-05-04T18:09:26.105Z</time>
      </trkpt>
      <trkpt lat="45.506885" lon="5.524139">
        <ele>456.346253</ele>
        <time>2026-05-04T18:11:16.938Z</time>
      </trkpt>
      <trkpt lat="45.506817" lon="5.524050">
        <ele>455.188931</ele>
        <time>2026-05-04T18:11:28.581Z</time>
      </trkpt>
      <trkpt lat="45.506740" lon="5.523857">
        <ele>453.236842</ele>
        <time>2026-05-04T18:11:48.219Z</time>
      </trkpt>
      <trkpt lat="45.506743" lon="5.523449">
        <ele>449.650348</ele>
        <time>2026-05-04T18:12:24.147Z</time>
      </trkpt>
      <trkpt lat="45.506809" lon="5.522974">
        <ele>445.393859</ele>
        <time>2026-05-04T18:13:06.255Z</time>
      </trkpt>
      <trkpt lat="45.506779" lon="5.522534">
        <ele>442.243309</ele>
        <time>2026-05-04T18:13:43.959Z</time>
      </trkpt>
      <trkpt lat="45.506604" lon="5.522014">
        <ele>439.251798</ele>
        <time>2026-05-04T18:14:32.493Z</time>
      </trkpt>
      <trkpt lat="45.506383" lon="5.521608">
        <ele>436.585797</ele>
        <time>2026-05-04T18:15:14.872Z</time>
      </trkpt>
      <trkpt lat="45.506379" lon="5.521456">
        <ele>435.796970</ele>
        <time>2026-05-04T18:15:27.107Z</time>
      </trkpt>
      <trkpt lat="45.506480" lon="5.521156">
        <ele>434.070968</ele>
        <time>2026-05-04T18:15:53.576Z</time>
      </trkpt>
      <trkpt lat="45.506542" lon="5.520544">
        <ele>430.864157</ele>
        <time>2026-05-04T18:16:40.599Z</time>
      </trkpt>
      <trkpt lat="45.506557" lon="5.520099">
        <ele>429.532082</ele>
        <time>2026-05-04T18:17:13.686Z</time>
      </trkpt>
      <trkpt lat="45.506516" lon="5.519632">
        <ele>428.751873</ele>
        <time>2026-05-04T18:17:48.119Z</time>
      </trkpt>
      <trkpt lat="45.506352" lon="5.519769">
        <ele>428.302359</ele>
        <time>2026-05-04T18:18:07.774Z</time>
      </trkpt>
      <trkpt lat="45.505978" lon="5.519099">
        <ele>426.882419</ele>
        <time>2026-05-04T18:19:10.286Z</time>
      </trkpt>
      <trkpt lat="45.505732" lon="5.518731">
        <ele>426.039358</ele>
        <time>2026-05-04T18:19:47.615Z</time>
      </trkpt>
      <trkpt lat="45.504974" lon="5.517854">
        <ele>425.133432</ele>
        <time>2026-05-04T18:21:29.883Z</time>
      </trkpt>
      <trkpt lat="45.504523" lon="5.517242">
        <ele>424.690329</ele>
        <time>2026-05-04T18:22:32.321Z</time>
      </trkpt>
      <trkpt lat="45.504016" lon="5.516636">
        <ele>424.937917</ele>
        <time>2026-05-04T18:23:42.308Z</time>
      </trkpt>
      <trkpt lat="45.503563" lon="5.515984">
        <ele>425.866779</ele>
        <time>2026-05-04T18:24:51.758Z</time>
      </trkpt>
      <trkpt lat="45.503258" lon="5.514268">
        <ele>427.163919</ele>
        <time>2026-05-04T18:27:01.042Z</time>
      </trkpt>
      <trkpt lat="45.503121" lon="5.513204">
        <ele>427.364276</ele>
        <time>2026-05-04T18:28:16.996Z</time>
      </trkpt>
      <trkpt lat="45.502813" lon="5.512318">
        <ele>427.758678</ele>
        <time>2026-05-04T18:29:27.086Z</time>
      </trkpt>
      <trkpt lat="45.502811" lon="5.512186">
        <ele>428.056151</ele>
        <time>2026-05-04T18:29:36.370Z</time>
      </trkpt>
      <trkpt lat="45.502883" lon="5.511586">
        <ele>429.427656</ele>
        <time>2026-05-04T18:30:20.219Z</time>
      </trkpt>
      <trkpt lat="45.502758" lon="5.510716">
        <ele>431.428580</ele>
        <time>2026-05-04T18:31:28.985Z</time>
      </trkpt>
      <trkpt lat="45.502478" lon="5.509557">
        <ele>435.089757</ele>
        <time>2026-05-04T18:33:13.477Z</time>
      </trkpt>
      <trkpt lat="45.502329" lon="5.509182">
        <ele>437.053128</ele>
        <time>2026-05-04T18:33:51.724Z</time>
      </trkpt>
      <trkpt lat="45.502005" lon="5.508888">
        <ele>439.548390</ele>
        <time>2026-05-04T18:34:40.193Z</time>
      </trkpt>
      <trkpt lat="45.501854" lon="5.508487">
        <ele>441.621739</ele>
        <time>2026-05-04T18:35:19.924Z</time>
      </trkpt>
      <trkpt lat="45.501805" lon="5.508258">
        <ele>442.712292</ele>
        <time>2026-05-04T18:35:40.596Z</time>
      </trkpt>
      <trkpt lat="45.501741" lon="5.508145">
        <ele>443.374014</ele>
        <time>2026-05-04T18:35:52.971Z</time>
      </trkpt>
      <trkpt lat="45.501523" lon="5.508017">
        <ele>444.905961</ele>
        <time>2026-05-04T18:36:21.099Z</time>
      </trkpt>
      <trkpt lat="45.501397" lon="5.507900">
        <ele>445.222869</ele>
        <time>2026-05-04T18:36:38.671Z</time>
      </trkpt>
      <trkpt lat="45.501329" lon="5.507769">
        <ele>445.410912</ele>
        <time>2026-05-04T18:36:51.908Z</time>
      </trkpt>
      <trkpt lat="45.501155" lon="5.507457">
        <ele>445.870846</ele>
        <time>2026-05-04T18:37:23.510Z</time>
      </trkpt>
      <trkpt lat="45.500952" lon="5.506993">
        <ele>446.501804</ele>
        <time>2026-05-04T18:38:05.506Z</time>
      </trkpt>
      <trkpt lat="45.500730" lon="5.506319">
        <ele>447.360866</ele>
        <time>2026-05-04T18:38:59.760Z</time>
      </trkpt>
      <trkpt lat="45.500427" lon="5.505675">
        <ele>446.813444</ele>
        <time>2026-05-04T18:39:56.201Z</time>
      </trkpt>
      <trkpt lat="45.500469" lon="5.505286">
        <ele>445.058144</ele>
        <time>2026-05-04T18:40:26.269Z</time>
      </trkpt>
      <trkpt lat="45.500437" lon="5.505047">
        <ele>443.972993</ele>
        <time>2026-05-04T18:40:45.197Z</time>
      </trkpt>
      <trkpt lat="45.500420" lon="5.504906">
        <ele>443.334934</ele>
        <time>2026-05-04T18:40:56.488Z</time>
      </trkpt>
      <trkpt lat="45.500405" lon="5.504615">
        <ele>442.033645</ele>
        <time>2026-05-04T18:41:19.778Z</time>
      </trkpt>
      <trkpt lat="45.500467" lon="5.504292">
        <ele>440.540108</ele>
        <time>2026-05-04T18:41:46.939Z</time>
      </trkpt>
      <trkpt lat="45.500454" lon="5.503865">
        <ele>438.634004</ele>
        <time>2026-05-04T18:42:22.195Z</time>
      </trkpt>
      <trkpt lat="45.500410" lon="5.503482">
        <ele>436.903132</ele>
        <time>2026-05-04T18:42:54.374Z</time>
      </trkpt>
      <trkpt lat="45.500120" lon="5.502802">
        <ele>432.125152</ele>
        <time>2026-05-04T18:44:00.569Z</time>
      </trkpt>
      <trkpt lat="45.499982" lon="5.502588">
        <ele>430.324512</ele>
        <time>2026-05-04T18:44:24.755Z</time>
      </trkpt>
      <trkpt lat="45.499671" lon="5.502220">
        <ele>426.754988</ele>
        <time>2026-05-04T18:45:12.390Z</time>
      </trkpt>
      <trkpt lat="45.499487" lon="5.502146">
        <ele>425.066092</ele>
        <time>2026-05-04T18:45:34.889Z</time>
      </trkpt>
      <trkpt lat="45.499352" lon="5.502054">
        <ele>423.744362</ele>
        <time>2026-05-04T18:45:52.374Z</time>
      </trkpt>
      <trkpt lat="45.499391" lon="5.501877">
        <ele>422.595455</ele>
        <time>2026-05-04T18:46:07.532Z</time>
      </trkpt>
      <trkpt lat="45.499465" lon="5.501753">
        <ele>421.587007</ele>
        <time>2026-05-04T18:46:20.882Z</time>
      </trkpt>
      <trkpt lat="45.499541" lon="5.501556">
        <ele>420.236772</ele>
        <time>2026-05-04T18:46:39.112Z</time>
      </trkpt>
      <trkpt lat="45.499701" lon="5.500710">
        <ele>415.343242</ele>
        <time>2026-05-04T18:47:50.243Z</time>
      </trkpt>
      <trkpt lat="45.499726" lon="5.500425">
        <ele>413.739221</ele>
        <time>2026-05-04T18:48:13.489Z</time>
      </trkpt>
      <trkpt lat="45.499667" lon="5.499899">
        <ele>410.764354</ele>
        <time>2026-05-04T18:48:56.757Z</time>
      </trkpt>
      <trkpt lat="45.499865" lon="5.499826">
        <ele>409.134949</ele>
        <time>2026-05-04T18:49:20.435Z</time>
      </trkpt>
      <trkpt lat="45.500158" lon="5.499633">
        <ele>406.563648</ele>
        <time>2026-05-04T18:49:57.893Z</time>
      </trkpt>
      <trkpt lat="45.500361" lon="5.499440">
        <ele>404.627286</ele>
        <time>2026-05-04T18:50:26.231Z</time>
      </trkpt>
      <trkpt lat="45.500865" lon="5.498813">
        <ele>399.322605</ele>
        <time>2026-05-04T18:51:44.151Z</time>
      </trkpt>
      <trkpt lat="45.501335" lon="5.498220">
        <ele>394.345356</ele>
        <time>2026-05-04T18:52:57.051Z</time>
      </trkpt>
      <trkpt lat="45.501302" lon="5.498133">
        <ele>393.795329</ele>
        <time>2026-05-04T18:53:05.068Z</time>
      </trkpt>
      <trkpt lat="45.501432" lon="5.497933">
        <ele>392.278703</ele>
        <time>2026-05-04T18:53:27.157Z</time>
      </trkpt>
      <trkpt lat="45.502060" lon="5.496574">
        <ele>385.663350</ele>
        <time>2026-05-04T18:55:37.115Z</time>
      </trkpt>
      <trkpt lat="45.502190" lon="5.495679">
        <ele>381.988198</ele>
        <time>2026-05-04T18:56:47.367Z</time>
      </trkpt>
      <trkpt lat="45.502048" lon="5.495076">
        <ele>381.806979</ele>
        <time>2026-05-04T18:57:34.118Z</time>
      </trkpt>
      <trkpt lat="45.502085" lon="5.494837">
        <ele>381.850339</ele>
        <time>2026-05-04T18:57:51.620Z</time>
      </trkpt>
      <trkpt lat="45.502123" lon="5.494719">
        <ele>381.873344</ele>
        <time>2026-05-04T18:58:00.837Z</time>
      </trkpt>
      <trkpt lat="45.502637" lon="5.493462">
        <ele>382.131152</ele>
        <time>2026-05-04T18:59:48.038Z</time>
      </trkpt>
      <trkpt lat="45.502649" lon="5.493433">
        <ele>382.137118</ele>
        <time>2026-05-04T18:59:50.660Z</time>
      </trkpt>
      <trkpt lat="45.502977" lon="5.492610">
        <ele>384.670365</ele>
        <time>2026-05-04T19:01:05.490Z</time>
      </trkpt>
      <trkpt lat="45.503796" lon="5.491021">
        <ele>390.995167</ele>
        <time>2026-05-04T19:03:47.588Z</time>
      </trkpt>
      <trkpt lat="45.503990" lon="5.490689">
        <ele>392.766528</ele>
        <time>2026-05-04T19:04:24.322Z</time>
      </trkpt>
      <trkpt lat="45.504102" lon="5.490495">
        <ele>393.796519</ele>
        <time>2026-05-04T19:04:45.733Z</time>
      </trkpt>
      <trkpt lat="45.504413" lon="5.490074">
        <ele>396.303133</ele>
        <time>2026-05-04T19:05:37.707Z</time>
      </trkpt>
      <trkpt lat="45.504457" lon="5.489916">
        <ele>396.999845</ele>
        <time>2026-05-04T19:05:52.251Z</time>
      </trkpt>
      <trkpt lat="45.504895" lon="5.489209">
        <ele>400.884369</ele>
        <time>2026-05-04T19:07:11.931Z</time>
      </trkpt>
      <trkpt lat="45.505048" lon="5.488707">
        <ele>403.291844</ele>
        <time>2026-05-04T19:07:57.705Z</time>
      </trkpt>
      <trkpt lat="45.505224" lon="5.488448">
        <ele>404.878411</ele>
        <time>2026-05-04T19:08:27.674Z</time>
      </trkpt>
      <trkpt lat="45.505597" lon="5.487985">
        <ele>407.980779</ele>
        <time>2026-05-04T19:09:27.283Z</time>
      </trkpt>
      <trkpt lat="45.506009" lon="5.487580">
        <ele>411.120279</ele>
        <time>2026-05-04T19:10:29.170Z</time>
      </trkpt>
      <trkpt lat="45.506083" lon="5.487349">
        <ele>412.314980</ele>
        <time>2026-05-04T19:10:51.405Z</time>
      </trkpt>
      <trkpt lat="45.506684" lon="5.486776">
        <ele>417.934959</ele>
        <time>2026-05-04T19:12:22.831Z</time>
      </trkpt>
      <trkpt lat="45.506757" lon="5.486467">
        <ele>419.711791</ele>
        <time>2026-05-04T19:12:52.134Z</time>
      </trkpt>
      <trkpt lat="45.506382" lon="5.485952">
        <ele>423.758530</ele>
        <time>2026-05-04T19:13:58.521Z</time>
      </trkpt>
      <trkpt lat="45.506160" lon="5.484987">
        <ele>429.973595</ele>
        <time>2026-05-04T19:15:28.012Z</time>
      </trkpt>
      <trkpt lat="45.506295" lon="5.485068">
        <ele>431.340486</ele>
        <time>2026-05-04T19:15:46.768Z</time>
      </trkpt>
      <trkpt lat="45.506407" lon="5.485281">
        <ele>433.082320</ele>
        <time>2026-05-04T19:16:11.047Z</time>
      </trkpt>
      <trkpt lat="45.506647" lon="5.485466">
        <ele>435.628333</ele>
        <time>2026-05-04T19:16:46.924Z</time>
      </trkpt>
      <trkpt lat="45.506849" lon="5.485582">
        <ele>437.660662</ele>
        <time>2026-05-04T19:17:16.005Z</time>
      </trkpt>
      <trkpt lat="45.507080" lon="5.485526">
        <ele>439.847599</ele>
        <time>2026-05-04T19:17:47.499Z</time>
      </trkpt>
      <trkpt lat="45.507913" lon="5.483787">
        <ele>454.822239</ele>
        <time>2026-05-04T19:21:10.044Z</time>
      </trkpt>
      <trkpt lat="45.508276" lon="5.483330">
        <ele>459.834591</ele>
        <time>2026-05-04T19:22:14.270Z</time>
      </trkpt>
      <trkpt lat="45.508509" lon="5.482928">
        <ele>463.149999</ele>
        <time>2026-05-04T19:23:01.773Z</time>
      </trkpt>
      <trkpt lat="45.508748" lon="5.482214">
        <ele>467.724405</ele>
        <time>2026-05-04T19:24:12.324Z</time>
      </trkpt>
      <trkpt lat="45.508906" lon="5.481981">
        <ele>469.598764</ele>
        <time>2026-05-04T19:24:41.151Z</time>
      </trkpt>
      <trkpt lat="45.509117" lon="5.481856">
        <ele>471.483410</ele>
        <time>2026-05-04T19:25:10.264Z</time>
      </trkpt>
      <trkpt lat="45.509283" lon="5.481407">
        <ele>474.418176</ele>
        <time>2026-05-04T19:25:55.630Z</time>
      </trkpt>
      <trkpt lat="45.509370" lon="5.481061">
        <ele>476.548719</ele>
        <time>2026-05-04T19:26:28.358Z</time>
      </trkpt>
      <trkpt lat="45.509910" lon="5.480800">
        <ele>481.316313</ele>
        <time>2026-05-04T19:27:40.978Z</time>
      </trkpt>
      <trkpt lat="45.510155" lon="5.480772">
        <ele>483.371615</ele>
        <time>2026-05-04T19:28:12.314Z</time>
      </trkpt>
      <trkpt lat="45.510557" lon="5.480607">
        <ele>486.869519</ele>
        <time>2026-05-04T19:29:05.846Z</time>
      </trkpt>
      <trkpt lat="45.511041" lon="5.480668">
        <ele>490.932584</ele>
        <time>2026-05-04T19:30:08.545Z</time>
      </trkpt>
      <trkpt lat="45.511255" lon="5.480543">
        <ele>493.056733</ele>
        <time>2026-05-04T19:30:38.787Z</time>
      </trkpt>
      <trkpt lat="45.511567" lon="5.480447">
        <ele>496.028378</ele>
        <time>2026-05-04T19:31:21.190Z</time>
      </trkpt>
      <trkpt lat="45.511868" lon="5.480547">
        <ele>498.905794</ele>
        <time>2026-05-04T19:32:02.454Z</time>
      </trkpt>
      <trkpt lat="45.512175" lon="5.480756">
        <ele>502.072731</ele>
        <time>2026-05-04T19:32:47.661Z</time>
      </trkpt>
      <trkpt lat="45.512538" lon="5.480929">
        <ele>505.635950</ele>
        <time>2026-05-04T19:33:38.275Z</time>
      </trkpt>
      <trkpt lat="45.512825" lon="5.481234">
        <ele>508.688280</ele>
        <time>2026-05-04T19:34:25.083Z</time>
      </trkpt>
      <trkpt lat="45.513098" lon="5.481611">
        <ele>511.270773</ele>
        <time>2026-05-04T19:35:13.637Z</time>
      </trkpt>
      <trkpt lat="45.513362" lon="5.481912">
        <ele>513.567866</ele>
        <time>2026-05-04T19:35:55.483Z</time>
      </trkpt>
      <trkpt lat="45.513627" lon="5.482073">
        <ele>515.525767</ele>
        <time>2026-05-04T19:36:29.740Z</time>
      </trkpt>
      <trkpt lat="45.513801" lon="5.482322">
        <ele>517.200874</ele>
        <time>2026-05-04T19:36:59.457Z</time>
      </trkpt>
      <trkpt lat="45.513943" lon="5.482670">
        <ele>519.119155</ele>
        <time>2026-05-04T19:37:33.454Z</time>
      </trkpt>
      <trkpt lat="45.514127" lon="5.482737">
        <ele>520.326491</ele>
        <time>2026-05-04T19:37:56.370Z</time>
      </trkpt>
      <trkpt lat="45.514387" lon="5.483067">
        <ele>521.903052</ele>
        <time>2026-05-04T19:38:37.958Z</time>
      </trkpt>
      <trkpt lat="45.514263" lon="5.483133">
        <ele>522.502694</ele>
        <time>2026-05-04T19:38:53.666Z</time>
      </trkpt>
      <trkpt lat="45.514024" lon="5.483061">
        <ele>523.609454</ele>
        <time>2026-05-04T19:39:22.267Z</time>
      </trkpt>
      <trkpt lat="45.513576" lon="5.483081">
        <ele>525.640306</ele>
        <time>2026-05-04T19:40:13.829Z</time>
      </trkpt>
      <trkpt lat="45.513514" lon="5.483153">
        <ele>526.002485</ele>
        <time>2026-05-04T19:40:22.988Z</time>
      </trkpt>
      <trkpt lat="45.513565" lon="5.483318">
        <ele>526.575062</ele>
        <time>2026-05-04T19:40:37.499Z</time>
      </trkpt>
      <trkpt lat="45.513718" lon="5.483501">
        <ele>527.479586</ele>
        <time>2026-05-04T19:41:00.388Z</time>
      </trkpt>
      <trkpt lat="45.514252" lon="5.483803">
        <ele>529.534235</ele>
        <time>2026-05-04T19:42:03.702Z</time>
      </trkpt>
      <trkpt lat="45.514811" lon="5.484024">
        <ele>531.350257</ele>
        <time>2026-05-04T19:43:06.690Z</time>
      </trkpt>
      <trkpt lat="45.515129" lon="5.484072">
        <ele>532.351398</ele>
        <time>2026-05-04T19:43:41.976Z</time>
      </trkpt>
      <trkpt lat="45.515833" lon="5.483820">
        <ele>534.634755</ele>
        <time>2026-05-04T19:45:04.315Z</time>
      </trkpt>
      <trkpt lat="45.516151" lon="5.483779">
        <ele>535.650506</ele>
        <time>2026-05-04T19:45:40.394Z</time>
      </trkpt>
      <trkpt lat="45.516374" lon="5.483798">
        <ele>536.361184</ele>
        <time>2026-05-04T19:46:05.586Z</time>
      </trkpt>
      <trkpt lat="45.516853" lon="5.483499">
        <ele>538.024378</ele>
        <time>2026-05-04T19:47:03.824Z</time>
      </trkpt>
      <trkpt lat="45.517592" lon="5.482901">
        <ele>540.540032</ele>
        <time>2026-05-04T19:48:36.505Z</time>
      </trkpt>
      <trkpt lat="45.517932" lon="5.482766">
        <ele>541.465690</ele>
        <time>2026-05-04T19:49:14.388Z</time>
      </trkpt>
      <trkpt lat="45.519832" lon="5.481397">
        <ele>548.583162</ele>
        <time>2026-05-04T19:53:08.302Z</time>
      </trkpt>
      <trkpt lat="45.520220" lon="5.480166">
        <ele>552.794058</ele>
        <time>2026-05-04T19:55:01.398Z</time>
      </trkpt>
      <trkpt lat="45.520347" lon="5.479509">
        <ele>555.647745</ele>
        <time>2026-05-04T19:56:00.380Z</time>
      </trkpt>
      <trkpt lat="45.520863" lon="5.478012">
        <ele>562.607804</ele>
        <time>2026-05-04T19:58:22.073Z</time>
      </trkpt>
      <trkpt lat="45.521194" lon="5.476902">
        <ele>565.918325</ele>
        <time>2026-05-04T19:59:59.772Z</time>
      </trkpt>
      <trkpt lat="45.520222" lon="5.475727">
        <ele>570.359405</ele>
        <time>2026-05-04T20:02:20.840Z</time>
      </trkpt>
      <trkpt lat="45.519642" lon="5.475214">
        <ele>571.908057</ele>
        <time>2026-05-04T20:03:34.681Z</time>
      </trkpt>
      <trkpt lat="45.518949" lon="5.474722">
        <ele>573.664743</ele>
        <time>2026-05-04T20:04:57.570Z</time>
      </trkpt>
      <trkpt lat="45.518290" lon="5.473391">
        <ele>574.869847</ele>
        <time>2026-05-04T20:06:58.051Z</time>
      </trkpt>
      <trkpt lat="45.518108" lon="5.473074">
        <ele>575.169939</ele>
        <time>2026-05-04T20:07:27.283Z</time>
      </trkpt>
      <trkpt lat="45.517134" lon="5.471830">
        <ele>575.683995</ele>
        <time>2026-05-04T20:09:38.380Z</time>
      </trkpt>
      <trkpt lat="45.516841" lon="5.471317">
        <ele>575.742894</ele>
        <time>2026-05-04T20:10:25.335Z</time>
      </trkpt>
      <trkpt lat="45.516420" lon="5.470437">
        <ele>575.600737</ele>
        <time>2026-05-04T20:11:41.164Z</time>
      </trkpt>
      <trkpt lat="45.516356" lon="5.470413">
        <ele>575.562977</ele>
        <time>2026-05-04T20:11:47.882Z</time>
      </trkpt>
      <trkpt lat="45.516384" lon="5.470305">
        <ele>575.516933</ele>
        <time>2026-05-04T20:11:56.114Z</time>
      </trkpt>
      <trkpt lat="45.515485" lon="5.468911">
        <ele>574.739915</ele>
        <time>2026-05-04T20:14:10.954Z</time>
      </trkpt>
      <trkpt lat="45.515436" lon="5.468406">
        <ele>574.085120</ele>
        <time>2026-05-04T20:14:48.234Z</time>
      </trkpt>
      <trkpt lat="45.514953" lon="5.467515">
        <ele>572.638271</ele>
        <time>2026-05-04T20:16:11.014Z</time>
      </trkpt>
      <trkpt lat="45.513388" lon="5.463665">
        <ele>568.624829</ele>
        <time>2026-05-04T20:21:33.761Z</time>
      </trkpt>
      <trkpt lat="45.512867" lon="5.462920">
        <ele>568.709813</ele>
        <time>2026-05-04T20:22:49.039Z</time>
      </trkpt>
      <trkpt lat="45.511836" lon="5.461740">
        <ele>571.091265</ele>
        <time>2026-05-04T20:25:11.596Z</time>
      </trkpt>
      <trkpt lat="45.511148" lon="5.461273">
        <ele>572.977787</ele>
        <time>2026-05-04T20:26:35.666Z</time>
      </trkpt>
      <trkpt lat="45.510460" lon="5.460930">
        <ele>574.875148</ele>
        <time>2026-05-04T20:27:56.377Z</time>
      </trkpt>
      <trkpt lat="45.510317" lon="5.460887">
        <ele>575.258329</ele>
        <time>2026-05-04T20:28:12.513Z</time>
      </trkpt>
      <trkpt lat="45.508469" lon="5.459217">
        <ele>579.474293</ele>
        <time>2026-05-04T20:32:09.225Z</time>
      </trkpt>
      <trkpt lat="45.508096" lon="5.458318">
        <ele>580.189463</ele>
        <time>2026-05-04T20:33:22.708Z</time>
      </trkpt>
      <trkpt lat="45.508130" lon="5.455991">
        <ele>578.379839</ele>
        <time>2026-05-04T20:36:10.838Z</time>
      </trkpt>
      <trkpt lat="45.507352" lon="5.455915">
        <ele>577.388512</ele>
        <time>2026-05-04T20:37:30.634Z</time>
      </trkpt>
      <trkpt lat="45.507150" lon="5.456208">
        <ele>577.018257</ele>
        <time>2026-05-04T20:38:00.080Z</time>
      </trkpt>
      <trkpt lat="45.506887" lon="5.456443">
        <ele>576.619377</ele>
        <time>2026-05-04T20:38:31.821Z</time>
      </trkpt>
      <trkpt lat="45.506678" lon="5.456688">
        <ele>576.271690</ele>
        <time>2026-05-04T20:38:59.517Z</time>
      </trkpt>
      <trkpt lat="45.505950" lon="5.457967">
        <ele>573.640917</ele>
        <time>2026-05-04T20:40:59.755Z</time>
      </trkpt>
      <trkpt lat="45.505208" lon="5.459343">
        <ele>569.996187</ele>
        <time>2026-05-04T20:43:09.491Z</time>
      </trkpt>
      <trkpt lat="45.504544" lon="5.460308">
        <ele>566.045626</ele>
        <time>2026-05-04T20:44:51.968Z</time>
      </trkpt>
      <trkpt lat="45.503898" lon="5.461247">
        <ele>561.344432</ele>
        <time>2026-05-04T20:46:34.028Z</time>
      </trkpt>
      <trkpt lat="45.503508" lon="5.461945">
        <ele>557.493066</ele>
        <time>2026-05-04T20:47:43.968Z</time>
      </trkpt>
      <trkpt lat="45.503388" lon="5.462079">
        <ele>556.555013</ele>
        <time>2026-05-04T20:48:01.058Z</time>
      </trkpt>
      <trkpt lat="45.503214" lon="5.462184">
        <ele>555.392020</ele>
        <time>2026-05-04T20:48:22.480Z</time>
      </trkpt>
      <trkpt lat="45.503065" lon="5.462325">
        <ele>554.291383</ele>
        <time>2026-05-04T20:48:42.896Z</time>
      </trkpt>
      <trkpt lat="45.502823" lon="5.462761">
        <ele>551.536502</ele>
        <time>2026-05-04T20:49:27.740Z</time>
      </trkpt>
      <trkpt lat="45.502649" lon="5.463137">
        <ele>548.925513</ele>
        <time>2026-05-04T20:50:04.529Z</time>
      </trkpt>
      <trkpt lat="45.502491" lon="5.463576">
        <ele>546.065725</ele>
        <time>2026-05-04T20:50:45.037Z</time>
      </trkpt>
      <trkpt lat="45.502279" lon="5.463919">
        <ele>543.415580</ele>
        <time>2026-05-04T20:51:22.762Z</time>
      </trkpt>
      <trkpt lat="45.501948" lon="5.464165">
        <ele>540.329805</ele>
        <time>2026-05-04T20:52:06.938Z</time>
      </trkpt>
      <trkpt lat="45.501726" lon="5.464226">
        <ele>538.460556</ele>
        <time>2026-05-04T20:52:33.371Z</time>
      </trkpt>
      <trkpt lat="45.501208" lon="5.464633">
        <ele>534.024249</ele>
        <time>2026-05-04T20:53:41.543Z</time>
      </trkpt>
      <trkpt lat="45.501061" lon="5.464627">
        <ele>532.931175</ele>
        <time>2026-05-04T20:53:58.196Z</time>
      </trkpt>
      <trkpt lat="45.500466" lon="5.464064">
        <ele>527.624426</ele>
        <time>2026-05-04T20:55:18.532Z</time>
      </trkpt>
      <trkpt lat="45.500376" lon="5.464023">
        <ele>526.922197</ele>
        <time>2026-05-04T20:55:29.377Z</time>
      </trkpt>
      <trkpt lat="45.500031" lon="5.464061">
        <ele>524.209026</ele>
        <time>2026-05-04T20:56:09.651Z</time>
      </trkpt>
      <trkpt lat="45.499940" lon="5.464039">
        <ele>523.235272</ele>
        <time>2026-05-04T20:56:20.380Z</time>
      </trkpt>
      <trkpt lat="45.499534" lon="5.463695">
        <ele>518.253476</ele>
        <time>2026-05-04T20:57:16.716Z</time>
      </trkpt>
      <trkpt lat="45.499336" lon="5.463694">
        <ele>516.164523</ele>
        <time>2026-05-04T20:57:40.755Z</time>
      </trkpt>
      <trkpt lat="45.498914" lon="5.464302">
        <ele>509.837075</ele>
        <time>2026-05-04T20:58:54.742Z</time>
      </trkpt>
      <trkpt lat="45.498635" lon="5.464583">
        <ele>506.233997</ele>
        <time>2026-05-04T20:59:37.005Z</time>
      </trkpt>
      <trkpt lat="45.498412" lon="5.464706">
        <ele>503.962002</ele>
        <time>2026-05-04T21:00:06.147Z</time>
      </trkpt>
      <trkpt lat="45.498178" lon="5.464791">
        <ele>501.733560</ele>
        <time>2026-05-04T21:00:35.284Z</time>
      </trkpt>
      <trkpt lat="45.497850" lon="5.465003">
        <ele>498.410349</ele>
        <time>2026-05-04T21:01:18.609Z</time>
      </trkpt>
      <trkpt lat="45.497390" lon="5.465238">
        <ele>493.901121</ele>
        <time>2026-05-04T21:02:16.451Z</time>
      </trkpt>
      <trkpt lat="45.497342" lon="5.465310">
        <ele>493.258342</ele>
        <time>2026-05-04T21:02:24.634Z</time>
      </trkpt>
      <trkpt lat="45.497230" lon="5.465893">
        <ele>489.347908</ele>
        <time>2026-05-04T21:03:13.436Z</time>
      </trkpt>
      <trkpt lat="45.497052" lon="5.466733">
        <ele>486.499522</ele>
        <time>2026-05-04T21:04:22.321Z</time>
      </trkpt>
      <trkpt lat="45.497024" lon="5.466964">
        <ele>485.771428</ele>
        <time>2026-05-04T21:04:40.485Z</time>
      </trkpt>
      <trkpt lat="45.497114" lon="5.467549">
        <ele>483.911272</ele>
        <time>2026-05-04T21:05:26.173Z</time>
      </trkpt>
      <trkpt lat="45.497224" lon="5.468344">
        <ele>481.394500</ele>
        <time>2026-05-04T21:06:26.055Z</time>
      </trkpt>
      <trkpt lat="45.497261" lon="5.468535">
        <ele>480.976124</ele>
        <time>2026-05-04T21:06:40.482Z</time>
      </trkpt>
      <trkpt lat="45.497323" lon="5.468684">
        <ele>480.730236</ele>
        <time>2026-05-04T21:06:53.028Z</time>
      </trkpt>
      <trkpt lat="45.497472" lon="5.468933">
        <ele>480.265648</ele>
        <time>2026-05-04T21:07:16.858Z</time>
      </trkpt>
      <trkpt lat="45.497912" lon="5.469508">
        <ele>479.057656</ele>
        <time>2026-05-04T21:08:18.661Z</time>
      </trkpt>
      <trkpt lat="45.497911" lon="5.469973">
        <ele>478.397804</ele>
        <time>2026-05-04T21:08:51.985Z</time>
      </trkpt>
      <trkpt lat="45.497877" lon="5.470196">
        <ele>478.073960</ele>
        <time>2026-05-04T21:09:08.473Z</time>
      </trkpt>
      <trkpt lat="45.497818" lon="5.470355">
        <ele>477.818668</ele>
        <time>2026-05-04T21:09:21.491Z</time>
      </trkpt>
      <trkpt lat="45.497718" lon="5.470525">
        <ele>477.503739</ele>
        <time>2026-05-04T21:09:37.745Z</time>
      </trkpt>
      <trkpt lat="45.497604" lon="5.470658">
        <ele>476.496535</ele>
        <time>2026-05-04T21:09:53.315Z</time>
      </trkpt>
      <trkpt lat="45.497517" lon="5.470714">
        <ele>475.838849</ele>
        <time>2026-05-04T21:10:03.575Z</time>
      </trkpt>
      <trkpt lat="45.497177" lon="5.470652">
        <ele>473.476940</ele>
        <time>2026-05-04T21:10:41.174Z</time>
      </trkpt>
      <trkpt lat="45.496666" lon="5.470668">
        <ele>469.954930</ele>
        <time>2026-05-04T21:11:39.153Z</time>
      </trkpt>
      <trkpt lat="45.496312" lon="5.470752">
        <ele>467.482100</ele>
        <time>2026-05-04T21:12:21.297Z</time>
      </trkpt>
      <trkpt lat="45.496099" lon="5.470862">
        <ele>465.921168</ele>
        <time>2026-05-04T21:12:48.559Z</time>
      </trkpt>
      <trkpt lat="45.495874" lon="5.471017">
        <ele>463.448552</ele>
        <time>2026-05-04T21:13:18.915Z</time>
      </trkpt>
      <trkpt lat="45.495198" lon="5.471571">
        <ele>453.629881</ele>
        <time>2026-05-04T21:14:55.360Z</time>
      </trkpt>
      <trkpt lat="45.494677" lon="5.472276">
        <ele>444.585863</ele>
        <time>2026-05-04T21:16:26.101Z</time>
      </trkpt>
      <trkpt lat="45.494477" lon="5.472414">
        <ele>441.744695</ele>
        <time>2026-05-04T21:16:54.462Z</time>
      </trkpt>
      <trkpt lat="45.494323" lon="5.472468">
        <ele>439.618110</ele>
        <time>2026-05-04T21:17:14.641Z</time>
      </trkpt>
      <trkpt lat="45.493802" lon="5.472475">
        <ele>432.631270</ele>
        <time>2026-05-04T21:18:21.381Z</time>
      </trkpt>
      <trkpt lat="45.493700" lon="5.472449">
        <ele>431.241802</ele>
        <time>2026-05-04T21:18:34.767Z</time>
      </trkpt>
      <trkpt lat="45.492445" lon="5.471761">
        <ele>415.876480</ele>
        <time>2026-05-04T21:21:23.339Z</time>
      </trkpt>
      <trkpt lat="45.492333" lon="5.471725">
        <ele>415.137702</ele>
        <time>2026-05-04T21:21:36.837Z</time>
      </trkpt>
      <trkpt lat="45.492291" lon="5.471744">
        <ele>414.854171</ele>
        <time>2026-05-04T21:21:41.984Z</time>
      </trkpt>
      <trkpt lat="45.492176" lon="5.471966">
        <ele>413.608994</ele>
        <time>2026-05-04T21:22:04.312Z</time>
      </trkpt>
      <trkpt lat="45.492123" lon="5.472000">
        <ele>413.235045</ele>
        <time>2026-05-04T21:22:10.854Z</time>
      </trkpt>
      <trkpt lat="45.492076" lon="5.472002">
        <ele>412.932470</ele>
        <time>2026-05-04T21:22:16.266Z</time>
      </trkpt>
      <trkpt lat="45.491955" lon="5.471866">
        <ele>411.941198</ele>
        <time>2026-05-04T21:22:33.504Z</time>
      </trkpt>
      <trkpt lat="45.491155" lon="5.471028">
        <ele>406.532873</ele>
        <time>2026-05-04T21:24:17.786Z</time>
      </trkpt>
      <trkpt lat="45.491080" lon="5.470897">
        <ele>406.389102</ele>
        <time>2026-05-04T21:24:29.820Z</time>
      </trkpt>
      <trkpt lat="45.490955" lon="5.470678">
        <ele>406.149044</ele>
        <time>2026-05-04T21:24:50.006Z</time>
      </trkpt>
      <trkpt lat="45.490822" lon="5.470233">
        <ele>405.737835</ele>
        <time>2026-05-04T21:25:24.792Z</time>
      </trkpt>
      <trkpt lat="45.490619" lon="5.470459">
        <ele>405.425592</ele>
        <time>2026-05-04T21:25:51.076Z</time>
      </trkpt>
      <trkpt lat="45.490544" lon="5.470559">
        <ele>405.301109</ele>
        <time>2026-05-04T21:26:01.487Z</time>
      </trkpt>
      <trkpt lat="45.490389" lon="5.470781">
        <ele>405.034772</ele>
        <time>2026-05-04T21:26:23.869Z</time>
      </trkpt>
      <trkpt lat="45.490719" lon="5.471232">
        <ele>404.579091</ele>
        <time>2026-05-04T21:27:10.463Z</time>
      </trkpt>
      <trkpt lat="45.490759" lon="5.471286">
        <ele>404.579091</ele>
        <time>2026-05-04T21:27:16.034Z</time>
      </trkpt>
      <trkpt lat="45.490900" lon="5.471499">
        <ele>404.579091</ele>
        <time>2026-05-04T21:27:37.146Z</time>
      </trkpt>
      <trkpt lat="45.490983" lon="5.471782">
        <ele>404.579091</ele>
        <time>2026-05-04T21:27:59.122Z</time>
      </trkpt>
      <trkpt lat="45.491039" lon="5.471883">
        <ele>404.579091</ele>
        <time>2026-05-04T21:28:08.219Z</time>
      </trkpt>
      <trkpt lat="45.491446" lon="5.472400">
        <ele>404.579091</ele>
        <time>2026-05-04T21:29:03.313Z</time>
      </trkpt>
      <trkpt lat="45.491537" lon="5.472417">
        <ele>404.579091</ele>
        <time>2026-05-04T21:29:12.625Z</time>
      </trkpt>
    </trkseg>
  </trk>
</gpx>